<?xml version="1.0" encoding="UTF-8" standalone="no" ?>
<gpx xmlns="http://www.topografix.com/GPX/1/1" xmlns:xsi="http://www.w3.org/2001/XMLSchema-instance" xsi:schemaLocation="http://www.topografix.com/GPX/1/1 http://www.topografix.com/GPX/1/1/gpx.xsd" version="1.1" creator="VisuGPX - https://www.visugpx.com">
  <metadata>
    <name>83-M-Carcès</name>
    <desc><![CDATA[83-M-Carcès : Canal - rocher de Brauch - Caramy


]]></desc>
  </metadata>
  <trk>
    <name><![CDATA[Carces 17 avr. 2019]]></name>
    <cmt><![CDATA[08:58:16]]></cmt>
    <desc><![CDATA[comment ...]]></desc>
    <trkseg>
      <trkpt lat="43.47559" lon="6.18273">
        <ele>150</ele>
        <time>2019-04-17T06:58:16Z</time>
      </trkpt>
      <trkpt lat="43.47559" lon="6.18273">
        <ele>150</ele>
        <time>2019-04-17T06:58:17Z</time>
      </trkpt>
      <trkpt lat="43.47561" lon="6.18279">
        <ele>149</ele>
        <time>2019-04-17T06:58:34Z</time>
      </trkpt>
      <trkpt lat="43.4756" lon="6.18285">
        <ele>149</ele>
        <time>2019-04-17T06:58:54Z</time>
      </trkpt>
      <trkpt lat="43.47558" lon="6.1829">
        <ele>149</ele>
        <time>2019-04-17T06:59:37Z</time>
      </trkpt>
      <trkpt lat="43.47565" lon="6.18305">
        <ele>150</ele>
        <time>2019-04-17T06:59:53Z</time>
      </trkpt>
      <trkpt lat="43.47562" lon="6.18298">
        <ele>150</ele>
        <time>2019-04-17T07:00:41Z</time>
      </trkpt>
      <trkpt lat="43.47562" lon="6.18289">
        <ele>150</ele>
        <time>2019-04-17T07:00:48Z</time>
      </trkpt>
      <trkpt lat="43.47563" lon="6.18285">
        <ele>149</ele>
        <time>2019-04-17T07:02:45Z</time>
      </trkpt>
      <trkpt lat="43.47557" lon="6.18284">
        <ele>150</ele>
        <time>2019-04-17T07:04:53Z</time>
      </trkpt>
      <trkpt lat="43.47562" lon="6.18267">
        <ele>151</ele>
        <time>2019-04-17T07:05:25Z</time>
      </trkpt>
      <trkpt lat="43.47568" lon="6.18228">
        <ele>154</ele>
        <time>2019-04-17T07:05:55Z</time>
      </trkpt>
      <trkpt lat="43.47563" lon="6.18225">
        <ele>155</ele>
        <time>2019-04-17T07:05:58Z</time>
      </trkpt>
      <trkpt lat="43.47556" lon="6.18224">
        <ele>156</ele>
        <time>2019-04-17T07:06:05Z</time>
      </trkpt>
      <trkpt lat="43.47554" lon="6.18217">
        <ele>156</ele>
        <time>2019-04-17T07:06:16Z</time>
      </trkpt>
      <trkpt lat="43.47555" lon="6.18211">
        <ele>156</ele>
        <time>2019-04-17T07:06:21Z</time>
      </trkpt>
      <trkpt lat="43.47555" lon="6.18205">
        <ele>155</ele>
        <time>2019-04-17T07:06:26Z</time>
      </trkpt>
      <trkpt lat="43.47555" lon="6.18198">
        <ele>154</ele>
        <time>2019-04-17T07:06:30Z</time>
      </trkpt>
      <trkpt lat="43.47555" lon="6.1819">
        <ele>155</ele>
        <time>2019-04-17T07:06:35Z</time>
      </trkpt>
      <trkpt lat="43.47557" lon="6.1818">
        <ele>155</ele>
        <time>2019-04-17T07:06:43Z</time>
      </trkpt>
      <trkpt lat="43.47556" lon="6.1817">
        <ele>155</ele>
        <time>2019-04-17T07:06:50Z</time>
      </trkpt>
      <trkpt lat="43.47551" lon="6.18164">
        <ele>157</ele>
        <time>2019-04-17T07:07:06Z</time>
      </trkpt>
      <trkpt lat="43.47547" lon="6.18163">
        <ele>158</ele>
        <time>2019-04-17T07:07:27Z</time>
      </trkpt>
      <trkpt lat="43.47534" lon="6.18164">
        <ele>157</ele>
        <time>2019-04-17T07:07:45Z</time>
      </trkpt>
      <trkpt lat="43.47526" lon="6.18165">
        <ele>162</ele>
        <time>2019-04-17T07:08:03Z</time>
      </trkpt>
      <trkpt lat="43.47524" lon="6.18178">
        <ele>162</ele>
        <time>2019-04-17T07:08:12Z</time>
      </trkpt>
      <trkpt lat="43.4752" lon="6.18188">
        <ele>163</ele>
        <time>2019-04-17T07:08:21Z</time>
      </trkpt>
      <trkpt lat="43.47515" lon="6.18193">
        <ele>163</ele>
        <time>2019-04-17T07:08:28Z</time>
      </trkpt>
      <trkpt lat="43.47514" lon="6.18203">
        <ele>163</ele>
        <time>2019-04-17T07:08:36Z</time>
      </trkpt>
      <trkpt lat="43.47514" lon="6.18211">
        <ele>164</ele>
        <time>2019-04-17T07:08:42Z</time>
      </trkpt>
      <trkpt lat="43.47513" lon="6.18255">
        <ele>168</ele>
        <time>2019-04-17T07:09:04Z</time>
      </trkpt>
      <trkpt lat="43.4751" lon="6.18263">
        <ele>165</ele>
        <time>2019-04-17T07:09:13Z</time>
      </trkpt>
      <trkpt lat="43.47507" lon="6.18295">
        <ele>160</ele>
        <time>2019-04-17T07:09:40Z</time>
      </trkpt>
      <trkpt lat="43.47506" lon="6.18301">
        <ele>161</ele>
        <time>2019-04-17T07:09:44Z</time>
      </trkpt>
      <trkpt lat="43.47507" lon="6.18315">
        <ele>158</ele>
        <time>2019-04-17T07:09:53Z</time>
      </trkpt>
      <trkpt lat="43.47506" lon="6.18321">
        <ele>158</ele>
        <time>2019-04-17T07:09:56Z</time>
      </trkpt>
      <trkpt lat="43.47506" lon="6.18328">
        <ele>159</ele>
        <time>2019-04-17T07:10:01Z</time>
      </trkpt>
      <trkpt lat="43.47505" lon="6.18336">
        <ele>159</ele>
        <time>2019-04-17T07:10:08Z</time>
      </trkpt>
      <trkpt lat="43.47503" lon="6.18353">
        <ele>159</ele>
        <time>2019-04-17T07:10:18Z</time>
      </trkpt>
      <trkpt lat="43.47497" lon="6.18357">
        <ele>159</ele>
        <time>2019-04-17T07:10:24Z</time>
      </trkpt>
      <trkpt lat="43.47494" lon="6.18363">
        <ele>160</ele>
        <time>2019-04-17T07:10:31Z</time>
      </trkpt>
      <trkpt lat="43.47488" lon="6.18371">
        <ele>160</ele>
        <time>2019-04-17T07:10:38Z</time>
      </trkpt>
      <trkpt lat="43.47482" lon="6.18375">
        <ele>161</ele>
        <time>2019-04-17T07:10:43Z</time>
      </trkpt>
      <trkpt lat="43.47474" lon="6.18378">
        <ele>161</ele>
        <time>2019-04-17T07:10:50Z</time>
      </trkpt>
      <trkpt lat="43.47468" lon="6.18376">
        <ele>159</ele>
        <time>2019-04-17T07:11:16Z</time>
      </trkpt>
      <trkpt lat="43.47462" lon="6.18375">
        <ele>160</ele>
        <time>2019-04-17T07:11:41Z</time>
      </trkpt>
      <trkpt lat="43.47458" lon="6.1838">
        <ele>160</ele>
        <time>2019-04-17T07:12:29Z</time>
      </trkpt>
      <trkpt lat="43.47454" lon="6.18374">
        <ele>160</ele>
        <time>2019-04-17T07:12:43Z</time>
      </trkpt>
      <trkpt lat="43.47433" lon="6.18354">
        <ele>162</ele>
        <time>2019-04-17T07:13:11Z</time>
      </trkpt>
      <trkpt lat="43.47416" lon="6.18342">
        <ele>163</ele>
        <time>2019-04-17T07:13:26Z</time>
      </trkpt>
      <trkpt lat="43.47408" lon="6.18335">
        <ele>163</ele>
        <time>2019-04-17T07:13:35Z</time>
      </trkpt>
      <trkpt lat="43.474" lon="6.1833">
        <ele>164</ele>
        <time>2019-04-17T07:13:42Z</time>
      </trkpt>
      <trkpt lat="43.47385" lon="6.18318">
        <ele>164</ele>
        <time>2019-04-17T07:13:58Z</time>
      </trkpt>
      <trkpt lat="43.47379" lon="6.18314">
        <ele>162</ele>
        <time>2019-04-17T07:14:05Z</time>
      </trkpt>
      <trkpt lat="43.47377" lon="6.18308">
        <ele>162</ele>
        <time>2019-04-17T07:14:09Z</time>
      </trkpt>
      <trkpt lat="43.47375" lon="6.18299">
        <ele>162</ele>
        <time>2019-04-17T07:14:14Z</time>
      </trkpt>
      <trkpt lat="43.47368" lon="6.18278">
        <ele>162</ele>
        <time>2019-04-17T07:14:37Z</time>
      </trkpt>
      <trkpt lat="43.47362" lon="6.18269">
        <ele>162</ele>
        <time>2019-04-17T07:14:45Z</time>
      </trkpt>
      <trkpt lat="43.47355" lon="6.18265">
        <ele>161</ele>
        <time>2019-04-17T07:14:51Z</time>
      </trkpt>
      <trkpt lat="43.47348" lon="6.18263">
        <ele>158</ele>
        <time>2019-04-17T07:14:57Z</time>
      </trkpt>
      <trkpt lat="43.47334" lon="6.1827">
        <ele>155</ele>
        <time>2019-04-17T07:15:11Z</time>
      </trkpt>
      <trkpt lat="43.47322" lon="6.18285">
        <ele>158</ele>
        <time>2019-04-17T07:15:25Z</time>
      </trkpt>
      <trkpt lat="43.47321" lon="6.18309">
        <ele>159</ele>
        <time>2019-04-17T07:15:47Z</time>
      </trkpt>
      <trkpt lat="43.47315" lon="6.18318">
        <ele>159</ele>
        <time>2019-04-17T07:15:54Z</time>
      </trkpt>
      <trkpt lat="43.47307" lon="6.18324">
        <ele>161</ele>
        <time>2019-04-17T07:16:04Z</time>
      </trkpt>
      <trkpt lat="43.47299" lon="6.1833">
        <ele>160</ele>
        <time>2019-04-17T07:16:12Z</time>
      </trkpt>
      <trkpt lat="43.47291" lon="6.18338">
        <ele>159</ele>
        <time>2019-04-17T07:16:21Z</time>
      </trkpt>
      <trkpt lat="43.47282" lon="6.18346">
        <ele>159</ele>
        <time>2019-04-17T07:16:29Z</time>
      </trkpt>
      <trkpt lat="43.47273" lon="6.18354">
        <ele>159</ele>
        <time>2019-04-17T07:16:40Z</time>
      </trkpt>
      <trkpt lat="43.47254" lon="6.18379">
        <ele>159</ele>
        <time>2019-04-17T07:17:02Z</time>
      </trkpt>
      <trkpt lat="43.47247" lon="6.18388">
        <ele>159</ele>
        <time>2019-04-17T07:17:11Z</time>
      </trkpt>
      <trkpt lat="43.47242" lon="6.18399">
        <ele>158</ele>
        <time>2019-04-17T07:17:19Z</time>
      </trkpt>
      <trkpt lat="43.47236" lon="6.18412">
        <ele>158</ele>
        <time>2019-04-17T07:17:29Z</time>
      </trkpt>
      <trkpt lat="43.47231" lon="6.18423">
        <ele>159</ele>
        <time>2019-04-17T07:17:37Z</time>
      </trkpt>
      <trkpt lat="43.4722" lon="6.18439">
        <ele>158</ele>
        <time>2019-04-17T07:17:54Z</time>
      </trkpt>
      <trkpt lat="43.4722" lon="6.1845">
        <ele>157</ele>
        <time>2019-04-17T07:18:00Z</time>
      </trkpt>
      <trkpt lat="43.47218" lon="6.1846">
        <ele>158</ele>
        <time>2019-04-17T07:18:05Z</time>
      </trkpt>
      <trkpt lat="43.47209" lon="6.18492">
        <ele>160</ele>
        <time>2019-04-17T07:18:28Z</time>
      </trkpt>
      <trkpt lat="43.47208" lon="6.18502">
        <ele>160</ele>
        <time>2019-04-17T07:18:34Z</time>
      </trkpt>
      <trkpt lat="43.47205" lon="6.18511">
        <ele>160</ele>
        <time>2019-04-17T07:18:40Z</time>
      </trkpt>
      <trkpt lat="43.47204" lon="6.18521">
        <ele>159</ele>
        <time>2019-04-17T07:18:45Z</time>
      </trkpt>
      <trkpt lat="43.47203" lon="6.18541">
        <ele>159</ele>
        <time>2019-04-17T07:18:56Z</time>
      </trkpt>
      <trkpt lat="43.47203" lon="6.18552">
        <ele>159</ele>
        <time>2019-04-17T07:19:02Z</time>
      </trkpt>
      <trkpt lat="43.472" lon="6.18561">
        <ele>159</ele>
        <time>2019-04-17T07:19:07Z</time>
      </trkpt>
      <trkpt lat="43.472" lon="6.18571">
        <ele>160</ele>
        <time>2019-04-17T07:19:14Z</time>
      </trkpt>
      <trkpt lat="43.47197" lon="6.18579">
        <ele>160</ele>
        <time>2019-04-17T07:19:19Z</time>
      </trkpt>
      <trkpt lat="43.47179" lon="6.18594">
        <ele>158</ele>
        <time>2019-04-17T07:19:37Z</time>
      </trkpt>
      <trkpt lat="43.47173" lon="6.186">
        <ele>159</ele>
        <time>2019-04-17T07:19:44Z</time>
      </trkpt>
      <trkpt lat="43.47165" lon="6.18614">
        <ele>158</ele>
        <time>2019-04-17T07:19:53Z</time>
      </trkpt>
      <trkpt lat="43.47158" lon="6.18627">
        <ele>156</ele>
        <time>2019-04-17T07:20:04Z</time>
      </trkpt>
      <trkpt lat="43.47148" lon="6.18637">
        <ele>156</ele>
        <time>2019-04-17T07:20:16Z</time>
      </trkpt>
      <trkpt lat="43.47134" lon="6.18655">
        <ele>158</ele>
        <time>2019-04-17T07:20:32Z</time>
      </trkpt>
      <trkpt lat="43.47131" lon="6.18661">
        <ele>158</ele>
        <time>2019-04-17T07:20:37Z</time>
      </trkpt>
      <trkpt lat="43.47118" lon="6.18676">
        <ele>157</ele>
        <time>2019-04-17T07:20:53Z</time>
      </trkpt>
      <trkpt lat="43.47113" lon="6.18679">
        <ele>158</ele>
        <time>2019-04-17T07:20:58Z</time>
      </trkpt>
      <trkpt lat="43.47107" lon="6.18681">
        <ele>158</ele>
        <time>2019-04-17T07:21:03Z</time>
      </trkpt>
      <trkpt lat="43.47101" lon="6.18683">
        <ele>158</ele>
        <time>2019-04-17T07:21:08Z</time>
      </trkpt>
      <trkpt lat="43.47097" lon="6.18684">
        <ele>158</ele>
        <time>2019-04-17T07:21:59Z</time>
      </trkpt>
      <trkpt lat="43.47091" lon="6.18687">
        <ele>157</ele>
        <time>2019-04-17T07:22:06Z</time>
      </trkpt>
      <trkpt lat="43.47087" lon="6.18687">
        <ele>156</ele>
        <time>2019-04-17T07:22:10Z</time>
      </trkpt>
      <trkpt lat="43.47071" lon="6.18669">
        <ele>155</ele>
        <time>2019-04-17T07:22:32Z</time>
      </trkpt>
      <trkpt lat="43.47069" lon="6.1866">
        <ele>156</ele>
        <time>2019-04-17T07:22:39Z</time>
      </trkpt>
      <trkpt lat="43.47072" lon="6.18622">
        <ele>156</ele>
        <time>2019-04-17T07:23:04Z</time>
      </trkpt>
      <trkpt lat="43.47069" lon="6.18614">
        <ele>157</ele>
        <time>2019-04-17T07:23:17Z</time>
      </trkpt>
      <trkpt lat="43.47067" lon="6.1861">
        <ele>157</ele>
        <time>2019-04-17T07:23:27Z</time>
      </trkpt>
      <trkpt lat="43.47054" lon="6.18578">
        <ele>156</ele>
        <time>2019-04-17T07:23:53Z</time>
      </trkpt>
      <trkpt lat="43.4705" lon="6.18571">
        <ele>156</ele>
        <time>2019-04-17T07:23:59Z</time>
      </trkpt>
      <trkpt lat="43.47046" lon="6.18564">
        <ele>156</ele>
        <time>2019-04-17T07:24:04Z</time>
      </trkpt>
      <trkpt lat="43.47041" lon="6.18558">
        <ele>156</ele>
        <time>2019-04-17T07:24:09Z</time>
      </trkpt>
      <trkpt lat="43.47035" lon="6.18553">
        <ele>157</ele>
        <time>2019-04-17T07:24:15Z</time>
      </trkpt>
      <trkpt lat="43.47021" lon="6.18557">
        <ele>157</ele>
        <time>2019-04-17T07:24:27Z</time>
      </trkpt>
      <trkpt lat="43.47005" lon="6.18561">
        <ele>156</ele>
        <time>2019-04-17T07:24:40Z</time>
      </trkpt>
      <trkpt lat="43.46996" lon="6.18558">
        <ele>157</ele>
        <time>2019-04-17T07:24:48Z</time>
      </trkpt>
      <trkpt lat="43.4699" lon="6.18556">
        <ele>156</ele>
        <time>2019-04-17T07:24:54Z</time>
      </trkpt>
      <trkpt lat="43.46979" lon="6.1855">
        <ele>156</ele>
        <time>2019-04-17T07:25:05Z</time>
      </trkpt>
      <trkpt lat="43.46965" lon="6.18551">
        <ele>156</ele>
        <time>2019-04-17T07:25:19Z</time>
      </trkpt>
      <trkpt lat="43.46958" lon="6.18553">
        <ele>157</ele>
        <time>2019-04-17T07:25:24Z</time>
      </trkpt>
      <trkpt lat="43.46955" lon="6.18557">
        <ele>160</ele>
        <time>2019-04-17T07:25:43Z</time>
      </trkpt>
      <trkpt lat="43.46952" lon="6.1856">
        <ele>160</ele>
        <time>2019-04-17T07:25:47Z</time>
      </trkpt>
      <trkpt lat="43.46949" lon="6.18566">
        <ele>160</ele>
        <time>2019-04-17T07:25:52Z</time>
      </trkpt>
      <trkpt lat="43.46945" lon="6.18589">
        <ele>160</ele>
        <time>2019-04-17T07:26:04Z</time>
      </trkpt>
      <trkpt lat="43.4694" lon="6.18605">
        <ele>162</ele>
        <time>2019-04-17T07:26:14Z</time>
      </trkpt>
      <trkpt lat="43.46932" lon="6.18617">
        <ele>162</ele>
        <time>2019-04-17T07:26:24Z</time>
      </trkpt>
      <trkpt lat="43.46916" lon="6.18637">
        <ele>164</ele>
        <time>2019-04-17T07:26:40Z</time>
      </trkpt>
      <trkpt lat="43.46901" lon="6.18653">
        <ele>164</ele>
        <time>2019-04-17T07:26:54Z</time>
      </trkpt>
      <trkpt lat="43.46896" lon="6.18659">
        <ele>163</ele>
        <time>2019-04-17T07:26:58Z</time>
      </trkpt>
      <trkpt lat="43.46878" lon="6.18653">
        <ele>164</ele>
        <time>2019-04-17T07:27:18Z</time>
      </trkpt>
      <trkpt lat="43.46871" lon="6.18651">
        <ele>163</ele>
        <time>2019-04-17T07:27:23Z</time>
      </trkpt>
      <trkpt lat="43.46866" lon="6.18656">
        <ele>163</ele>
        <time>2019-04-17T07:27:28Z</time>
      </trkpt>
      <trkpt lat="43.46848" lon="6.18663">
        <ele>163</ele>
        <time>2019-04-17T07:27:43Z</time>
      </trkpt>
      <trkpt lat="43.46838" lon="6.18676">
        <ele>165</ele>
        <time>2019-04-17T07:27:54Z</time>
      </trkpt>
      <trkpt lat="43.46835" lon="6.18684">
        <ele>165</ele>
        <time>2019-04-17T07:27:59Z</time>
      </trkpt>
      <trkpt lat="43.46833" lon="6.18694">
        <ele>165</ele>
        <time>2019-04-17T07:28:05Z</time>
      </trkpt>
      <trkpt lat="43.46831" lon="6.18704">
        <ele>165</ele>
        <time>2019-04-17T07:28:11Z</time>
      </trkpt>
      <trkpt lat="43.4683" lon="6.18723">
        <ele>164</ele>
        <time>2019-04-17T07:28:21Z</time>
      </trkpt>
      <trkpt lat="43.4683" lon="6.18741">
        <ele>164</ele>
        <time>2019-04-17T07:28:31Z</time>
      </trkpt>
      <trkpt lat="43.46827" lon="6.18771">
        <ele>165</ele>
        <time>2019-04-17T07:28:48Z</time>
      </trkpt>
      <trkpt lat="43.46829" lon="6.18776">
        <ele>165</ele>
        <time>2019-04-17T07:29:05Z</time>
      </trkpt>
      <trkpt lat="43.46825" lon="6.18777">
        <ele>165</ele>
        <time>2019-04-17T07:29:24Z</time>
      </trkpt>
      <trkpt lat="43.46829" lon="6.1877">
        <ele>165</ele>
        <time>2019-04-17T07:29:39Z</time>
      </trkpt>
      <trkpt lat="43.46827" lon="6.1877">
        <ele>165</ele>
        <time>2019-04-17T07:30:56Z</time>
      </trkpt>
      <trkpt lat="43.46825" lon="6.18778">
        <ele>166</ele>
        <time>2019-04-17T07:31:34Z</time>
      </trkpt>
      <trkpt lat="43.46822" lon="6.18784">
        <ele>165</ele>
        <time>2019-04-17T07:31:49Z</time>
      </trkpt>
      <trkpt lat="43.46818" lon="6.18811">
        <ele>166</ele>
        <time>2019-04-17T07:32:12Z</time>
      </trkpt>
      <trkpt lat="43.46816" lon="6.18831">
        <ele>166</ele>
        <time>2019-04-17T07:32:26Z</time>
      </trkpt>
      <trkpt lat="43.46805" lon="6.18866">
        <ele>163</ele>
        <time>2019-04-17T07:32:50Z</time>
      </trkpt>
      <trkpt lat="43.46804" lon="6.18909">
        <ele>163</ele>
        <time>2019-04-17T07:33:22Z</time>
      </trkpt>
      <trkpt lat="43.46801" lon="6.18921">
        <ele>162</ele>
        <time>2019-04-17T07:33:30Z</time>
      </trkpt>
      <trkpt lat="43.46797" lon="6.18931">
        <ele>159</ele>
        <time>2019-04-17T07:33:36Z</time>
      </trkpt>
      <trkpt lat="43.46798" lon="6.18941">
        <ele>159</ele>
        <time>2019-04-17T07:33:42Z</time>
      </trkpt>
      <trkpt lat="43.46798" lon="6.18951">
        <ele>157</ele>
        <time>2019-04-17T07:33:48Z</time>
      </trkpt>
      <trkpt lat="43.46794" lon="6.18962">
        <ele>156</ele>
        <time>2019-04-17T07:33:55Z</time>
      </trkpt>
      <trkpt lat="43.46791" lon="6.18969">
        <ele>155</ele>
        <time>2019-04-17T07:34:03Z</time>
      </trkpt>
      <trkpt lat="43.46792" lon="6.18975">
        <ele>156</ele>
        <time>2019-04-17T07:34:11Z</time>
      </trkpt>
      <trkpt lat="43.46797" lon="6.19015">
        <ele>155</ele>
        <time>2019-04-17T07:34:37Z</time>
      </trkpt>
      <trkpt lat="43.468" lon="6.19024">
        <ele>154</ele>
        <time>2019-04-17T07:34:43Z</time>
      </trkpt>
      <trkpt lat="43.46804" lon="6.1903">
        <ele>154</ele>
        <time>2019-04-17T07:34:49Z</time>
      </trkpt>
      <trkpt lat="43.46809" lon="6.19032">
        <ele>155</ele>
        <time>2019-04-17T07:34:56Z</time>
      </trkpt>
      <trkpt lat="43.46812" lon="6.1904">
        <ele>156</ele>
        <time>2019-04-17T07:35:13Z</time>
      </trkpt>
      <trkpt lat="43.46815" lon="6.19048">
        <ele>156</ele>
        <time>2019-04-17T07:35:20Z</time>
      </trkpt>
      <trkpt lat="43.46819" lon="6.19059">
        <ele>157</ele>
        <time>2019-04-17T07:35:28Z</time>
      </trkpt>
      <trkpt lat="43.46824" lon="6.19063">
        <ele>158</ele>
        <time>2019-04-17T07:35:44Z</time>
      </trkpt>
      <trkpt lat="43.46828" lon="6.19067">
        <ele>158</ele>
        <time>2019-04-17T07:35:50Z</time>
      </trkpt>
      <trkpt lat="43.46824" lon="6.19075">
        <ele>156</ele>
        <time>2019-04-17T07:35:58Z</time>
      </trkpt>
      <trkpt lat="43.46826" lon="6.1908">
        <ele>156</ele>
        <time>2019-04-17T07:36:09Z</time>
      </trkpt>
      <trkpt lat="43.46828" lon="6.19086">
        <ele>156</ele>
        <time>2019-04-17T07:36:15Z</time>
      </trkpt>
      <trkpt lat="43.46833" lon="6.19086">
        <ele>156</ele>
        <time>2019-04-17T07:36:27Z</time>
      </trkpt>
      <trkpt lat="43.46831" lon="6.19078">
        <ele>156</ele>
        <time>2019-04-17T07:37:05Z</time>
      </trkpt>
      <trkpt lat="43.46827" lon="6.19076">
        <ele>156</ele>
        <time>2019-04-17T07:37:25Z</time>
      </trkpt>
      <trkpt lat="43.46827" lon="6.19071">
        <ele>156</ele>
        <time>2019-04-17T07:37:40Z</time>
      </trkpt>
      <trkpt lat="43.46823" lon="6.19068">
        <ele>156</ele>
        <time>2019-04-17T07:37:46Z</time>
      </trkpt>
      <trkpt lat="43.46825" lon="6.19068">
        <ele>156</ele>
        <time>2019-04-17T07:39:33Z</time>
      </trkpt>
      <trkpt lat="43.46831" lon="6.19068">
        <ele>156</ele>
        <time>2019-04-17T07:39:46Z</time>
      </trkpt>
      <trkpt lat="43.46832" lon="6.19061">
        <ele>157</ele>
        <time>2019-04-17T07:40:21Z</time>
      </trkpt>
      <trkpt lat="43.46832" lon="6.19065">
        <ele>158</ele>
        <time>2019-04-17T07:41:35Z</time>
      </trkpt>
      <trkpt lat="43.46816" lon="6.19069">
        <ele>157</ele>
        <time>2019-04-17T07:41:58Z</time>
      </trkpt>
      <trkpt lat="43.46802" lon="6.19067">
        <ele>157</ele>
        <time>2019-04-17T07:42:13Z</time>
      </trkpt>
      <trkpt lat="43.46797" lon="6.19062">
        <ele>157</ele>
        <time>2019-04-17T07:42:22Z</time>
      </trkpt>
      <trkpt lat="43.46795" lon="6.19056">
        <ele>157</ele>
        <time>2019-04-17T07:42:43Z</time>
      </trkpt>
      <trkpt lat="43.46791" lon="6.19049">
        <ele>152</ele>
        <time>2019-04-17T07:44:13Z</time>
      </trkpt>
      <trkpt lat="43.4678" lon="6.19045">
        <ele>154</ele>
        <time>2019-04-17T07:44:27Z</time>
      </trkpt>
      <trkpt lat="43.46772" lon="6.19043">
        <ele>154</ele>
        <time>2019-04-17T07:44:35Z</time>
      </trkpt>
      <trkpt lat="43.46769" lon="6.19048">
        <ele>152</ele>
        <time>2019-04-17T07:44:41Z</time>
      </trkpt>
      <trkpt lat="43.46767" lon="6.19054">
        <ele>151</ele>
        <time>2019-04-17T07:44:46Z</time>
      </trkpt>
      <trkpt lat="43.46763" lon="6.19069">
        <ele>147</ele>
        <time>2019-04-17T07:44:58Z</time>
      </trkpt>
      <trkpt lat="43.46763" lon="6.19095">
        <ele>144</ele>
        <time>2019-04-17T07:45:15Z</time>
      </trkpt>
      <trkpt lat="43.46759" lon="6.19098">
        <ele>144</ele>
        <time>2019-04-17T07:45:30Z</time>
      </trkpt>
      <trkpt lat="43.46754" lon="6.191">
        <ele>142</ele>
        <time>2019-04-17T07:45:37Z</time>
      </trkpt>
      <trkpt lat="43.46749" lon="6.19101">
        <ele>143</ele>
        <time>2019-04-17T07:45:54Z</time>
      </trkpt>
      <trkpt lat="43.46734" lon="6.19111">
        <ele>142</ele>
        <time>2019-04-17T07:46:09Z</time>
      </trkpt>
      <trkpt lat="43.4672" lon="6.19121">
        <ele>141</ele>
        <time>2019-04-17T07:46:21Z</time>
      </trkpt>
      <trkpt lat="43.46714" lon="6.19125">
        <ele>141</ele>
        <time>2019-04-17T07:46:26Z</time>
      </trkpt>
      <trkpt lat="43.46708" lon="6.19129">
        <ele>139</ele>
        <time>2019-04-17T07:46:31Z</time>
      </trkpt>
      <trkpt lat="43.46703" lon="6.19136">
        <ele>138</ele>
        <time>2019-04-17T07:46:36Z</time>
      </trkpt>
      <trkpt lat="43.46697" lon="6.1914">
        <ele>135</ele>
        <time>2019-04-17T07:46:44Z</time>
      </trkpt>
      <trkpt lat="43.46688" lon="6.1915">
        <ele>134</ele>
        <time>2019-04-17T07:46:56Z</time>
      </trkpt>
      <trkpt lat="43.46683" lon="6.19155">
        <ele>134</ele>
        <time>2019-04-17T07:47:04Z</time>
      </trkpt>
      <trkpt lat="43.46673" lon="6.19164">
        <ele>134</ele>
        <time>2019-04-17T07:47:14Z</time>
      </trkpt>
      <trkpt lat="43.46668" lon="6.19169">
        <ele>134</ele>
        <time>2019-04-17T07:47:20Z</time>
      </trkpt>
      <trkpt lat="43.46663" lon="6.19174">
        <ele>135</ele>
        <time>2019-04-17T07:47:33Z</time>
      </trkpt>
      <trkpt lat="43.46658" lon="6.19179">
        <ele>136</ele>
        <time>2019-04-17T07:47:39Z</time>
      </trkpt>
      <trkpt lat="43.4665" lon="6.19183">
        <ele>137</ele>
        <time>2019-04-17T07:47:46Z</time>
      </trkpt>
      <trkpt lat="43.46643" lon="6.19186">
        <ele>138</ele>
        <time>2019-04-17T07:47:51Z</time>
      </trkpt>
      <trkpt lat="43.46638" lon="6.19193">
        <ele>137</ele>
        <time>2019-04-17T07:47:56Z</time>
      </trkpt>
      <trkpt lat="43.46632" lon="6.19201">
        <ele>138</ele>
        <time>2019-04-17T07:48:04Z</time>
      </trkpt>
      <trkpt lat="43.46627" lon="6.19207">
        <ele>136</ele>
        <time>2019-04-17T07:48:11Z</time>
      </trkpt>
      <trkpt lat="43.46608" lon="6.1922">
        <ele>133</ele>
        <time>2019-04-17T07:48:29Z</time>
      </trkpt>
      <trkpt lat="43.46594" lon="6.19228">
        <ele>132</ele>
        <time>2019-04-17T07:48:40Z</time>
      </trkpt>
      <trkpt lat="43.46587" lon="6.19235">
        <ele>133</ele>
        <time>2019-04-17T07:48:46Z</time>
      </trkpt>
      <trkpt lat="43.46569" lon="6.19244">
        <ele>132</ele>
        <time>2019-04-17T07:49:00Z</time>
      </trkpt>
      <trkpt lat="43.46553" lon="6.19245">
        <ele>132</ele>
        <time>2019-04-17T07:49:13Z</time>
      </trkpt>
      <trkpt lat="43.46547" lon="6.19242">
        <ele>135</ele>
        <time>2019-04-17T07:49:54Z</time>
      </trkpt>
      <trkpt lat="43.46541" lon="6.1924">
        <ele>135</ele>
        <time>2019-04-17T07:49:58Z</time>
      </trkpt>
      <trkpt lat="43.46536" lon="6.19242">
        <ele>135</ele>
        <time>2019-04-17T07:50:03Z</time>
      </trkpt>
      <trkpt lat="43.46526" lon="6.19251">
        <ele>134</ele>
        <time>2019-04-17T07:50:15Z</time>
      </trkpt>
      <trkpt lat="43.46513" lon="6.19258">
        <ele>133</ele>
        <time>2019-04-17T07:50:27Z</time>
      </trkpt>
      <trkpt lat="43.46504" lon="6.19268">
        <ele>138</ele>
        <time>2019-04-17T07:50:39Z</time>
      </trkpt>
      <trkpt lat="43.46504" lon="6.19276">
        <ele>140</ele>
        <time>2019-04-17T07:51:10Z</time>
      </trkpt>
      <trkpt lat="43.46497" lon="6.19284">
        <ele>142</ele>
        <time>2019-04-17T07:52:28Z</time>
      </trkpt>
      <trkpt lat="43.46486" lon="6.19313">
        <ele>143</ele>
        <time>2019-04-17T07:53:07Z</time>
      </trkpt>
      <trkpt lat="43.46478" lon="6.19314">
        <ele>143</ele>
        <time>2019-04-17T07:53:14Z</time>
      </trkpt>
      <trkpt lat="43.46465" lon="6.19312">
        <ele>143</ele>
        <time>2019-04-17T07:53:26Z</time>
      </trkpt>
      <trkpt lat="43.46453" lon="6.19323">
        <ele>141</ele>
        <time>2019-04-17T07:53:42Z</time>
      </trkpt>
      <trkpt lat="43.4642" lon="6.1934">
        <ele>144</ele>
        <time>2019-04-17T07:54:12Z</time>
      </trkpt>
      <trkpt lat="43.46412" lon="6.19343">
        <ele>145</ele>
        <time>2019-04-17T07:54:21Z</time>
      </trkpt>
      <trkpt lat="43.46405" lon="6.19343">
        <ele>144</ele>
        <time>2019-04-17T07:54:31Z</time>
      </trkpt>
      <trkpt lat="43.46397" lon="6.19343">
        <ele>147</ele>
        <time>2019-04-17T07:54:55Z</time>
      </trkpt>
      <trkpt lat="43.46391" lon="6.19334">
        <ele>150</ele>
        <time>2019-04-17T07:55:13Z</time>
      </trkpt>
      <trkpt lat="43.46384" lon="6.19329">
        <ele>150</ele>
        <time>2019-04-17T07:55:26Z</time>
      </trkpt>
      <trkpt lat="43.46376" lon="6.1933">
        <ele>150</ele>
        <time>2019-04-17T07:55:36Z</time>
      </trkpt>
      <trkpt lat="43.46368" lon="6.19334">
        <ele>152</ele>
        <time>2019-04-17T07:55:46Z</time>
      </trkpt>
      <trkpt lat="43.46366" lon="6.19341">
        <ele>153</ele>
        <time>2019-04-17T07:56:18Z</time>
      </trkpt>
      <trkpt lat="43.46364" lon="6.1935">
        <ele>153</ele>
        <time>2019-04-17T07:56:27Z</time>
      </trkpt>
      <trkpt lat="43.46351" lon="6.19365">
        <ele>153</ele>
        <time>2019-04-17T07:56:45Z</time>
      </trkpt>
      <trkpt lat="43.46346" lon="6.19375">
        <ele>153</ele>
        <time>2019-04-17T07:56:53Z</time>
      </trkpt>
      <trkpt lat="43.46338" lon="6.19384">
        <ele>155</ele>
        <time>2019-04-17T07:57:02Z</time>
      </trkpt>
      <trkpt lat="43.46329" lon="6.19388">
        <ele>157</ele>
        <time>2019-04-17T07:57:11Z</time>
      </trkpt>
      <trkpt lat="43.46323" lon="6.19387">
        <ele>158</ele>
        <time>2019-04-17T07:57:18Z</time>
      </trkpt>
      <trkpt lat="43.46294" lon="6.19385">
        <ele>159</ele>
        <time>2019-04-17T07:57:46Z</time>
      </trkpt>
      <trkpt lat="43.46287" lon="6.19391">
        <ele>160</ele>
        <time>2019-04-17T07:57:59Z</time>
      </trkpt>
      <trkpt lat="43.46279" lon="6.19395">
        <ele>163</ele>
        <time>2019-04-17T07:58:11Z</time>
      </trkpt>
      <trkpt lat="43.46272" lon="6.19404">
        <ele>165</ele>
        <time>2019-04-17T07:58:21Z</time>
      </trkpt>
      <trkpt lat="43.46265" lon="6.1941">
        <ele>166</ele>
        <time>2019-04-17T07:58:29Z</time>
      </trkpt>
      <trkpt lat="43.46255" lon="6.19415">
        <ele>168</ele>
        <time>2019-04-17T07:58:39Z</time>
      </trkpt>
      <trkpt lat="43.46246" lon="6.19421">
        <ele>168</ele>
        <time>2019-04-17T07:58:47Z</time>
      </trkpt>
      <trkpt lat="43.46238" lon="6.19422">
        <ele>168</ele>
        <time>2019-04-17T07:58:57Z</time>
      </trkpt>
      <trkpt lat="43.46228" lon="6.19423">
        <ele>170</ele>
        <time>2019-04-17T07:59:09Z</time>
      </trkpt>
      <trkpt lat="43.46225" lon="6.19437">
        <ele>169</ele>
        <time>2019-04-17T07:59:22Z</time>
      </trkpt>
      <trkpt lat="43.46221" lon="6.19448">
        <ele>170</ele>
        <time>2019-04-17T07:59:33Z</time>
      </trkpt>
      <trkpt lat="43.46219" lon="6.19461">
        <ele>171</ele>
        <time>2019-04-17T07:59:46Z</time>
      </trkpt>
      <trkpt lat="43.46215" lon="6.19472">
        <ele>173</ele>
        <time>2019-04-17T07:59:59Z</time>
      </trkpt>
      <trkpt lat="43.46208" lon="6.19482">
        <ele>175</ele>
        <time>2019-04-17T08:00:08Z</time>
      </trkpt>
      <trkpt lat="43.46201" lon="6.19489">
        <ele>175</ele>
        <time>2019-04-17T08:00:15Z</time>
      </trkpt>
      <trkpt lat="43.46193" lon="6.19488">
        <ele>174</ele>
        <time>2019-04-17T08:00:21Z</time>
      </trkpt>
      <trkpt lat="43.46185" lon="6.19494">
        <ele>175</ele>
        <time>2019-04-17T08:00:30Z</time>
      </trkpt>
      <trkpt lat="43.46176" lon="6.19496">
        <ele>177</ele>
        <time>2019-04-17T08:00:39Z</time>
      </trkpt>
      <trkpt lat="43.46158" lon="6.19499">
        <ele>177</ele>
        <time>2019-04-17T08:01:00Z</time>
      </trkpt>
      <trkpt lat="43.46153" lon="6.19506">
        <ele>177</ele>
        <time>2019-04-17T08:01:10Z</time>
      </trkpt>
      <trkpt lat="43.46146" lon="6.19513">
        <ele>177</ele>
        <time>2019-04-17T08:01:24Z</time>
      </trkpt>
      <trkpt lat="43.4614" lon="6.19523">
        <ele>177</ele>
        <time>2019-04-17T08:01:38Z</time>
      </trkpt>
      <trkpt lat="43.46131" lon="6.19528">
        <ele>178</ele>
        <time>2019-04-17T08:01:47Z</time>
      </trkpt>
      <trkpt lat="43.46125" lon="6.19536">
        <ele>178</ele>
        <time>2019-04-17T08:01:56Z</time>
      </trkpt>
      <trkpt lat="43.4611" lon="6.19552">
        <ele>176</ele>
        <time>2019-04-17T08:02:14Z</time>
      </trkpt>
      <trkpt lat="43.461" lon="6.19567">
        <ele>175</ele>
        <time>2019-04-17T08:02:27Z</time>
      </trkpt>
      <trkpt lat="43.46098" lon="6.19574">
        <ele>175</ele>
        <time>2019-04-17T08:02:35Z</time>
      </trkpt>
      <trkpt lat="43.46093" lon="6.19584">
        <ele>177</ele>
        <time>2019-04-17T08:02:43Z</time>
      </trkpt>
      <trkpt lat="43.46091" lon="6.19592">
        <ele>177</ele>
        <time>2019-04-17T08:02:50Z</time>
      </trkpt>
      <trkpt lat="43.46088" lon="6.19606">
        <ele>179</ele>
        <time>2019-04-17T08:03:02Z</time>
      </trkpt>
      <trkpt lat="43.46083" lon="6.19622">
        <ele>181</ele>
        <time>2019-04-17T08:03:17Z</time>
      </trkpt>
      <trkpt lat="43.46081" lon="6.1963">
        <ele>181</ele>
        <time>2019-04-17T08:03:24Z</time>
      </trkpt>
      <trkpt lat="43.46073" lon="6.19653">
        <ele>183</ele>
        <time>2019-04-17T08:03:43Z</time>
      </trkpt>
      <trkpt lat="43.46066" lon="6.19666">
        <ele>183</ele>
        <time>2019-04-17T08:03:55Z</time>
      </trkpt>
      <trkpt lat="43.46064" lon="6.19676">
        <ele>184</ele>
        <time>2019-04-17T08:04:02Z</time>
      </trkpt>
      <trkpt lat="43.46061" lon="6.19685">
        <ele>186</ele>
        <time>2019-04-17T08:04:08Z</time>
      </trkpt>
      <trkpt lat="43.46058" lon="6.19691">
        <ele>185</ele>
        <time>2019-04-17T08:04:13Z</time>
      </trkpt>
      <trkpt lat="43.46054" lon="6.19699">
        <ele>185</ele>
        <time>2019-04-17T08:04:19Z</time>
      </trkpt>
      <trkpt lat="43.46052" lon="6.19708">
        <ele>186</ele>
        <time>2019-04-17T08:04:25Z</time>
      </trkpt>
      <trkpt lat="43.46049" lon="6.19716">
        <ele>186</ele>
        <time>2019-04-17T08:04:31Z</time>
      </trkpt>
      <trkpt lat="43.46046" lon="6.19723">
        <ele>187</ele>
        <time>2019-04-17T08:04:37Z</time>
      </trkpt>
      <trkpt lat="43.46038" lon="6.19746">
        <ele>188</ele>
        <time>2019-04-17T08:04:54Z</time>
      </trkpt>
      <trkpt lat="43.46029" lon="6.1977">
        <ele>190</ele>
        <time>2019-04-17T08:05:19Z</time>
      </trkpt>
      <trkpt lat="43.46024" lon="6.19787">
        <ele>191</ele>
        <time>2019-04-17T08:05:33Z</time>
      </trkpt>
      <trkpt lat="43.46022" lon="6.19795">
        <ele>191</ele>
        <time>2019-04-17T08:05:40Z</time>
      </trkpt>
      <trkpt lat="43.46018" lon="6.19801">
        <ele>190</ele>
        <time>2019-04-17T08:05:46Z</time>
      </trkpt>
      <trkpt lat="43.46015" lon="6.19809">
        <ele>191</ele>
        <time>2019-04-17T08:05:52Z</time>
      </trkpt>
      <trkpt lat="43.46015" lon="6.19817">
        <ele>191</ele>
        <time>2019-04-17T08:05:57Z</time>
      </trkpt>
      <trkpt lat="43.46012" lon="6.19824">
        <ele>192</ele>
        <time>2019-04-17T08:06:02Z</time>
      </trkpt>
      <trkpt lat="43.46008" lon="6.19832">
        <ele>192</ele>
        <time>2019-04-17T08:06:08Z</time>
      </trkpt>
      <trkpt lat="43.46007" lon="6.19841">
        <ele>193</ele>
        <time>2019-04-17T08:06:16Z</time>
      </trkpt>
      <trkpt lat="43.46005" lon="6.19851">
        <ele>193</ele>
        <time>2019-04-17T08:06:25Z</time>
      </trkpt>
      <trkpt lat="43.46003" lon="6.19858">
        <ele>193</ele>
        <time>2019-04-17T08:06:31Z</time>
      </trkpt>
      <trkpt lat="43.46005" lon="6.19864">
        <ele>194</ele>
        <time>2019-04-17T08:06:36Z</time>
      </trkpt>
      <trkpt lat="43.46015" lon="6.19876">
        <ele>195</ele>
        <time>2019-04-17T08:06:56Z</time>
      </trkpt>
      <trkpt lat="43.4601" lon="6.19875">
        <ele>199</ele>
        <time>2019-04-17T08:08:27Z</time>
      </trkpt>
      <trkpt lat="43.46007" lon="6.19863">
        <ele>198</ele>
        <time>2019-04-17T08:08:34Z</time>
      </trkpt>
      <trkpt lat="43.46008" lon="6.19857">
        <ele>197</ele>
        <time>2019-04-17T08:10:34Z</time>
      </trkpt>
      <trkpt lat="43.46001" lon="6.19855">
        <ele>199</ele>
        <time>2019-04-17T08:11:25Z</time>
      </trkpt>
      <trkpt lat="43.46003" lon="6.19845">
        <ele>199</ele>
        <time>2019-04-17T08:12:15Z</time>
      </trkpt>
      <trkpt lat="43.46001" lon="6.19835">
        <ele>198</ele>
        <time>2019-04-17T08:12:24Z</time>
      </trkpt>
      <trkpt lat="43.46002" lon="6.19825">
        <ele>198</ele>
        <time>2019-04-17T08:12:32Z</time>
      </trkpt>
      <trkpt lat="43.46003" lon="6.19815">
        <ele>199</ele>
        <time>2019-04-17T08:12:39Z</time>
      </trkpt>
      <trkpt lat="43.46004" lon="6.19805">
        <ele>199</ele>
        <time>2019-04-17T08:12:50Z</time>
      </trkpt>
      <trkpt lat="43.46003" lon="6.19797">
        <ele>200</ele>
        <time>2019-04-17T08:12:58Z</time>
      </trkpt>
      <trkpt lat="43.46003" lon="6.19788">
        <ele>200</ele>
        <time>2019-04-17T08:13:05Z</time>
      </trkpt>
      <trkpt lat="43.46001" lon="6.19777">
        <ele>202</ele>
        <time>2019-04-17T08:13:17Z</time>
      </trkpt>
      <trkpt lat="43.45999" lon="6.19766">
        <ele>203</ele>
        <time>2019-04-17T08:13:25Z</time>
      </trkpt>
      <trkpt lat="43.45997" lon="6.19754">
        <ele>206</ele>
        <time>2019-04-17T08:13:36Z</time>
      </trkpt>
      <trkpt lat="43.4599" lon="6.19735">
        <ele>208</ele>
        <time>2019-04-17T08:13:54Z</time>
      </trkpt>
      <trkpt lat="43.45987" lon="6.19713">
        <ele>207</ele>
        <time>2019-04-17T08:14:11Z</time>
      </trkpt>
      <trkpt lat="43.45985" lon="6.19702">
        <ele>207</ele>
        <time>2019-04-17T08:14:20Z</time>
      </trkpt>
      <trkpt lat="43.45979" lon="6.19696">
        <ele>207</ele>
        <time>2019-04-17T08:14:27Z</time>
      </trkpt>
      <trkpt lat="43.45971" lon="6.19682">
        <ele>207</ele>
        <time>2019-04-17T08:14:42Z</time>
      </trkpt>
      <trkpt lat="43.45968" lon="6.19673">
        <ele>209</ele>
        <time>2019-04-17T08:14:52Z</time>
      </trkpt>
      <trkpt lat="43.4596" lon="6.19656">
        <ele>210</ele>
        <time>2019-04-17T08:15:08Z</time>
      </trkpt>
      <trkpt lat="43.45951" lon="6.1964">
        <ele>217</ele>
        <time>2019-04-17T08:15:31Z</time>
      </trkpt>
      <trkpt lat="43.4594" lon="6.19629">
        <ele>220</ele>
        <time>2019-04-17T08:15:40Z</time>
      </trkpt>
      <trkpt lat="43.4593" lon="6.19622">
        <ele>223</ele>
        <time>2019-04-17T08:15:48Z</time>
      </trkpt>
      <trkpt lat="43.45917" lon="6.19615">
        <ele>224</ele>
        <time>2019-04-17T08:16:04Z</time>
      </trkpt>
      <trkpt lat="43.45907" lon="6.19607">
        <ele>225</ele>
        <time>2019-04-17T08:16:17Z</time>
      </trkpt>
      <trkpt lat="43.45898" lon="6.19594">
        <ele>225</ele>
        <time>2019-04-17T08:16:28Z</time>
      </trkpt>
      <trkpt lat="43.45893" lon="6.1958">
        <ele>224</ele>
        <time>2019-04-17T08:16:41Z</time>
      </trkpt>
      <trkpt lat="43.45885" lon="6.19564">
        <ele>225</ele>
        <time>2019-04-17T08:16:55Z</time>
      </trkpt>
      <trkpt lat="43.45869" lon="6.19544">
        <ele>229</ele>
        <time>2019-04-17T08:17:20Z</time>
      </trkpt>
      <trkpt lat="43.45843" lon="6.19511">
        <ele>234</ele>
        <time>2019-04-17T08:17:55Z</time>
      </trkpt>
      <trkpt lat="43.45832" lon="6.19486">
        <ele>234</ele>
        <time>2019-04-17T08:18:19Z</time>
      </trkpt>
      <trkpt lat="43.45825" lon="6.19475">
        <ele>235</ele>
        <time>2019-04-17T08:18:35Z</time>
      </trkpt>
      <trkpt lat="43.45809" lon="6.19458">
        <ele>240</ele>
        <time>2019-04-17T08:18:57Z</time>
      </trkpt>
      <trkpt lat="43.45804" lon="6.19445">
        <ele>243</ele>
        <time>2019-04-17T08:19:09Z</time>
      </trkpt>
      <trkpt lat="43.45796" lon="6.19434">
        <ele>244</ele>
        <time>2019-04-17T08:19:21Z</time>
      </trkpt>
      <trkpt lat="43.45788" lon="6.19429">
        <ele>247</ele>
        <time>2019-04-17T08:19:31Z</time>
      </trkpt>
      <trkpt lat="43.45781" lon="6.19421">
        <ele>248</ele>
        <time>2019-04-17T08:19:44Z</time>
      </trkpt>
      <trkpt lat="43.4577" lon="6.194">
        <ele>250</ele>
        <time>2019-04-17T08:20:03Z</time>
      </trkpt>
      <trkpt lat="43.45761" lon="6.19394">
        <ele>252</ele>
        <time>2019-04-17T08:20:18Z</time>
      </trkpt>
      <trkpt lat="43.45749" lon="6.19372">
        <ele>254</ele>
        <time>2019-04-17T08:20:41Z</time>
      </trkpt>
      <trkpt lat="43.45744" lon="6.19363">
        <ele>256</ele>
        <time>2019-04-17T08:20:50Z</time>
      </trkpt>
      <trkpt lat="43.45746" lon="6.19356">
        <ele>254</ele>
        <time>2019-04-17T08:22:41Z</time>
      </trkpt>
      <trkpt lat="43.45748" lon="6.19341">
        <ele>256</ele>
        <time>2019-04-17T08:23:21Z</time>
      </trkpt>
      <trkpt lat="43.4575" lon="6.19328">
        <ele>256</ele>
        <time>2019-04-17T08:23:33Z</time>
      </trkpt>
      <trkpt lat="43.45765" lon="6.19293">
        <ele>254</ele>
        <time>2019-04-17T08:24:11Z</time>
      </trkpt>
      <trkpt lat="43.45771" lon="6.1928">
        <ele>251</ele>
        <time>2019-04-17T08:24:23Z</time>
      </trkpt>
      <trkpt lat="43.4577" lon="6.19266">
        <ele>251</ele>
        <time>2019-04-17T08:24:33Z</time>
      </trkpt>
      <trkpt lat="43.45768" lon="6.19252">
        <ele>250</ele>
        <time>2019-04-17T08:24:43Z</time>
      </trkpt>
      <trkpt lat="43.45773" lon="6.19238">
        <ele>247</ele>
        <time>2019-04-17T08:24:55Z</time>
      </trkpt>
      <trkpt lat="43.45782" lon="6.19229">
        <ele>246</ele>
        <time>2019-04-17T08:25:08Z</time>
      </trkpt>
      <trkpt lat="43.45792" lon="6.19223">
        <ele>244</ele>
        <time>2019-04-17T08:25:20Z</time>
      </trkpt>
      <trkpt lat="43.45796" lon="6.19209">
        <ele>243</ele>
        <time>2019-04-17T08:25:34Z</time>
      </trkpt>
      <trkpt lat="43.45806" lon="6.19198">
        <ele>242</ele>
        <time>2019-04-17T08:25:44Z</time>
      </trkpt>
      <trkpt lat="43.4582" lon="6.1917">
        <ele>240</ele>
        <time>2019-04-17T08:26:07Z</time>
      </trkpt>
      <trkpt lat="43.4582" lon="6.19155">
        <ele>240</ele>
        <time>2019-04-17T08:26:15Z</time>
      </trkpt>
      <trkpt lat="43.45824" lon="6.19142">
        <ele>237</ele>
        <time>2019-04-17T08:26:24Z</time>
      </trkpt>
      <trkpt lat="43.45832" lon="6.19114">
        <ele>235</ele>
        <time>2019-04-17T08:26:46Z</time>
      </trkpt>
      <trkpt lat="43.45839" lon="6.19098">
        <ele>235</ele>
        <time>2019-04-17T08:27:01Z</time>
      </trkpt>
      <trkpt lat="43.45831" lon="6.19089">
        <ele>236</ele>
        <time>2019-04-17T08:27:40Z</time>
      </trkpt>
      <trkpt lat="43.45821" lon="6.19084">
        <ele>235</ele>
        <time>2019-04-17T08:27:51Z</time>
      </trkpt>
      <trkpt lat="43.45807" lon="6.19084">
        <ele>234</ele>
        <time>2019-04-17T08:28:04Z</time>
      </trkpt>
      <trkpt lat="43.45796" lon="6.19081">
        <ele>232</ele>
        <time>2019-04-17T08:28:17Z</time>
      </trkpt>
      <trkpt lat="43.45787" lon="6.19084">
        <ele>231</ele>
        <time>2019-04-17T08:28:26Z</time>
      </trkpt>
      <trkpt lat="43.45756" lon="6.19083">
        <ele>226</ele>
        <time>2019-04-17T08:28:54Z</time>
      </trkpt>
      <trkpt lat="43.45745" lon="6.19087">
        <ele>224</ele>
        <time>2019-04-17T08:29:05Z</time>
      </trkpt>
      <trkpt lat="43.45707" lon="6.19083">
        <ele>222</ele>
        <time>2019-04-17T08:29:36Z</time>
      </trkpt>
      <trkpt lat="43.45669" lon="6.19076">
        <ele>219</ele>
        <time>2019-04-17T08:30:08Z</time>
      </trkpt>
      <trkpt lat="43.45659" lon="6.19074">
        <ele>220</ele>
        <time>2019-04-17T08:30:18Z</time>
      </trkpt>
      <trkpt lat="43.4564" lon="6.19068">
        <ele>220</ele>
        <time>2019-04-17T08:30:40Z</time>
      </trkpt>
      <trkpt lat="43.45627" lon="6.19072">
        <ele>221</ele>
        <time>2019-04-17T08:31:03Z</time>
      </trkpt>
      <trkpt lat="43.45613" lon="6.1907">
        <ele>225</ele>
        <time>2019-04-17T08:31:19Z</time>
      </trkpt>
      <trkpt lat="43.456" lon="6.19074">
        <ele>225</ele>
        <time>2019-04-17T08:31:31Z</time>
      </trkpt>
      <trkpt lat="43.45588" lon="6.19074">
        <ele>226</ele>
        <time>2019-04-17T08:31:43Z</time>
      </trkpt>
      <trkpt lat="43.45574" lon="6.1908">
        <ele>227</ele>
        <time>2019-04-17T08:31:55Z</time>
      </trkpt>
      <trkpt lat="43.45564" lon="6.19096">
        <ele>226</ele>
        <time>2019-04-17T08:32:07Z</time>
      </trkpt>
      <trkpt lat="43.45552" lon="6.19102">
        <ele>227</ele>
        <time>2019-04-17T08:32:17Z</time>
      </trkpt>
      <trkpt lat="43.45539" lon="6.19111">
        <ele>230</ele>
        <time>2019-04-17T08:32:38Z</time>
      </trkpt>
      <trkpt lat="43.45525" lon="6.19115">
        <ele>232</ele>
        <time>2019-04-17T08:33:01Z</time>
      </trkpt>
      <trkpt lat="43.45511" lon="6.19119">
        <ele>235</ele>
        <time>2019-04-17T08:33:22Z</time>
      </trkpt>
      <trkpt lat="43.45495" lon="6.19121">
        <ele>236</ele>
        <time>2019-04-17T08:33:39Z</time>
      </trkpt>
      <trkpt lat="43.45483" lon="6.19126">
        <ele>238</ele>
        <time>2019-04-17T08:33:56Z</time>
      </trkpt>
      <trkpt lat="43.45466" lon="6.19125">
        <ele>238</ele>
        <time>2019-04-17T08:34:12Z</time>
      </trkpt>
      <trkpt lat="43.45453" lon="6.19128">
        <ele>238</ele>
        <time>2019-04-17T08:34:25Z</time>
      </trkpt>
      <trkpt lat="43.45425" lon="6.19136">
        <ele>234</ele>
        <time>2019-04-17T08:34:56Z</time>
      </trkpt>
      <trkpt lat="43.45412" lon="6.19141">
        <ele>236</ele>
        <time>2019-04-17T08:35:15Z</time>
      </trkpt>
      <trkpt lat="43.45407" lon="6.19149">
        <ele>237</ele>
        <time>2019-04-17T08:35:53Z</time>
      </trkpt>
      <trkpt lat="43.454" lon="6.19157">
        <ele>237</ele>
        <time>2019-04-17T08:36:23Z</time>
      </trkpt>
      <trkpt lat="43.45392" lon="6.19176">
        <ele>237</ele>
        <time>2019-04-17T08:36:37Z</time>
      </trkpt>
      <trkpt lat="43.45386" lon="6.19191">
        <ele>237</ele>
        <time>2019-04-17T08:36:51Z</time>
      </trkpt>
      <trkpt lat="43.45376" lon="6.19204">
        <ele>237</ele>
        <time>2019-04-17T08:37:05Z</time>
      </trkpt>
      <trkpt lat="43.45372" lon="6.19221">
        <ele>239</ele>
        <time>2019-04-17T08:37:18Z</time>
      </trkpt>
      <trkpt lat="43.45368" lon="6.19239">
        <ele>239</ele>
        <time>2019-04-17T08:37:38Z</time>
      </trkpt>
      <trkpt lat="43.45358" lon="6.19253">
        <ele>240</ele>
        <time>2019-04-17T08:37:50Z</time>
      </trkpt>
      <trkpt lat="43.45355" lon="6.19271">
        <ele>242</ele>
        <time>2019-04-17T08:38:08Z</time>
      </trkpt>
      <trkpt lat="43.45348" lon="6.19285">
        <ele>245</ele>
        <time>2019-04-17T08:38:22Z</time>
      </trkpt>
      <trkpt lat="43.45341" lon="6.19303">
        <ele>246</ele>
        <time>2019-04-17T08:38:37Z</time>
      </trkpt>
      <trkpt lat="43.45326" lon="6.19337">
        <ele>250</ele>
        <time>2019-04-17T08:39:05Z</time>
      </trkpt>
      <trkpt lat="43.45322" lon="6.19358">
        <ele>251</ele>
        <time>2019-04-17T08:39:25Z</time>
      </trkpt>
      <trkpt lat="43.45315" lon="6.19379">
        <ele>255</ele>
        <time>2019-04-17T08:39:42Z</time>
      </trkpt>
      <trkpt lat="43.45305" lon="6.19395">
        <ele>256</ele>
        <time>2019-04-17T08:40:00Z</time>
      </trkpt>
      <trkpt lat="43.45296" lon="6.19412">
        <ele>260</ele>
        <time>2019-04-17T08:40:22Z</time>
      </trkpt>
      <trkpt lat="43.45289" lon="6.1943">
        <ele>262</ele>
        <time>2019-04-17T08:40:38Z</time>
      </trkpt>
      <trkpt lat="43.45286" lon="6.19453">
        <ele>265</ele>
        <time>2019-04-17T08:41:08Z</time>
      </trkpt>
      <trkpt lat="43.45279" lon="6.1947">
        <ele>267</ele>
        <time>2019-04-17T08:41:37Z</time>
      </trkpt>
      <trkpt lat="43.45272" lon="6.19486">
        <ele>275</ele>
        <time>2019-04-17T08:43:19Z</time>
      </trkpt>
      <trkpt lat="43.45275" lon="6.19505">
        <ele>276</ele>
        <time>2019-04-17T08:43:37Z</time>
      </trkpt>
      <trkpt lat="43.45264" lon="6.19517">
        <ele>282</ele>
        <time>2019-04-17T08:43:55Z</time>
      </trkpt>
      <trkpt lat="43.45257" lon="6.19527">
        <ele>284</ele>
        <time>2019-04-17T08:44:43Z</time>
      </trkpt>
      <trkpt lat="43.45254" lon="6.19538">
        <ele>287</ele>
        <time>2019-04-17T08:44:57Z</time>
      </trkpt>
      <trkpt lat="43.45248" lon="6.19553">
        <ele>286</ele>
        <time>2019-04-17T08:45:13Z</time>
      </trkpt>
      <trkpt lat="43.45238" lon="6.19562">
        <ele>289</ele>
        <time>2019-04-17T08:45:26Z</time>
      </trkpt>
      <trkpt lat="43.45231" lon="6.19566">
        <ele>290</ele>
        <time>2019-04-17T08:45:50Z</time>
      </trkpt>
      <trkpt lat="43.45224" lon="6.1957">
        <ele>293</ele>
        <time>2019-04-17T08:46:52Z</time>
      </trkpt>
      <trkpt lat="43.45227" lon="6.19567">
        <ele>289</ele>
        <time>2019-04-17T08:48:23Z</time>
      </trkpt>
      <trkpt lat="43.45236" lon="6.1957">
        <ele>290</ele>
        <time>2019-04-17T08:48:40Z</time>
      </trkpt>
      <trkpt lat="43.45237" lon="6.1956">
        <ele>292</ele>
        <time>2019-04-17T08:48:59Z</time>
      </trkpt>
      <trkpt lat="43.45231" lon="6.1955">
        <ele>292</ele>
        <time>2019-04-17T08:49:18Z</time>
      </trkpt>
      <trkpt lat="43.45222" lon="6.19549">
        <ele>295</ele>
        <time>2019-04-17T08:49:36Z</time>
      </trkpt>
      <trkpt lat="43.45214" lon="6.19545">
        <ele>296</ele>
        <time>2019-04-17T08:49:55Z</time>
      </trkpt>
      <trkpt lat="43.45205" lon="6.1954">
        <ele>302</ele>
        <time>2019-04-17T08:50:19Z</time>
      </trkpt>
      <trkpt lat="43.45199" lon="6.19537">
        <ele>304</ele>
        <time>2019-04-17T08:50:43Z</time>
      </trkpt>
      <trkpt lat="43.45195" lon="6.1953">
        <ele>303</ele>
        <time>2019-04-17T08:51:15Z</time>
      </trkpt>
      <trkpt lat="43.45197" lon="6.19518">
        <ele>304</ele>
        <time>2019-04-17T08:51:32Z</time>
      </trkpt>
      <trkpt lat="43.45196" lon="6.19512">
        <ele>310</ele>
        <time>2019-04-17T08:51:57Z</time>
      </trkpt>
      <trkpt lat="43.4519" lon="6.19516">
        <ele>310</ele>
        <time>2019-04-17T08:52:49Z</time>
      </trkpt>
      <trkpt lat="43.45181" lon="6.19517">
        <ele>309</ele>
        <time>2019-04-17T08:52:58Z</time>
      </trkpt>
      <trkpt lat="43.45176" lon="6.19512">
        <ele>309</ele>
        <time>2019-04-17T08:53:14Z</time>
      </trkpt>
      <trkpt lat="43.45175" lon="6.19503">
        <ele>309</ele>
        <time>2019-04-17T08:53:47Z</time>
      </trkpt>
      <trkpt lat="43.45174" lon="6.19492">
        <ele>314</ele>
        <time>2019-04-17T08:53:59Z</time>
      </trkpt>
      <trkpt lat="43.45173" lon="6.19483">
        <ele>315</ele>
        <time>2019-04-17T08:54:09Z</time>
      </trkpt>
      <trkpt lat="43.45166" lon="6.19481">
        <ele>316</ele>
        <time>2019-04-17T08:54:17Z</time>
      </trkpt>
      <trkpt lat="43.45168" lon="6.19482">
        <ele>319</ele>
        <time>2019-04-17T08:57:11Z</time>
      </trkpt>
      <trkpt lat="43.45173" lon="6.19477">
        <ele>323</ele>
        <time>2019-04-17T08:57:25Z</time>
      </trkpt>
      <trkpt lat="43.45173" lon="6.19468">
        <ele>323</ele>
        <time>2019-04-17T08:57:42Z</time>
      </trkpt>
      <trkpt lat="43.45173" lon="6.19457">
        <ele>323</ele>
        <time>2019-04-17T08:57:54Z</time>
      </trkpt>
      <trkpt lat="43.45168" lon="6.19441">
        <ele>321</ele>
        <time>2019-04-17T08:58:31Z</time>
      </trkpt>
      <trkpt lat="43.4517" lon="6.19429">
        <ele>321</ele>
        <time>2019-04-17T08:58:53Z</time>
      </trkpt>
      <trkpt lat="43.45173" lon="6.19418">
        <ele>324</ele>
        <time>2019-04-17T08:59:11Z</time>
      </trkpt>
      <trkpt lat="43.45177" lon="6.19408">
        <ele>324</ele>
        <time>2019-04-17T08:59:21Z</time>
      </trkpt>
      <trkpt lat="43.45178" lon="6.19397">
        <ele>323</ele>
        <time>2019-04-17T08:59:28Z</time>
      </trkpt>
      <trkpt lat="43.45181" lon="6.19386">
        <ele>322</ele>
        <time>2019-04-17T08:59:36Z</time>
      </trkpt>
      <trkpt lat="43.4518" lon="6.19371">
        <ele>322</ele>
        <time>2019-04-17T08:59:50Z</time>
      </trkpt>
      <trkpt lat="43.45181" lon="6.19358">
        <ele>323</ele>
        <time>2019-04-17T09:00:04Z</time>
      </trkpt>
      <trkpt lat="43.45183" lon="6.19333">
        <ele>325</ele>
        <time>2019-04-17T09:00:26Z</time>
      </trkpt>
      <trkpt lat="43.45176" lon="6.19328">
        <ele>325</ele>
        <time>2019-04-17T09:00:37Z</time>
      </trkpt>
      <trkpt lat="43.45175" lon="6.19317">
        <ele>324</ele>
        <time>2019-04-17T09:00:52Z</time>
      </trkpt>
      <trkpt lat="43.45178" lon="6.19307">
        <ele>325</ele>
        <time>2019-04-17T09:01:02Z</time>
      </trkpt>
      <trkpt lat="43.45177" lon="6.19294">
        <ele>323</ele>
        <time>2019-04-17T09:01:38Z</time>
      </trkpt>
      <trkpt lat="43.45184" lon="6.19287">
        <ele>324</ele>
        <time>2019-04-17T09:01:52Z</time>
      </trkpt>
      <trkpt lat="43.45186" lon="6.19275">
        <ele>328</ele>
        <time>2019-04-17T09:02:04Z</time>
      </trkpt>
      <trkpt lat="43.45187" lon="6.19264">
        <ele>331</ele>
        <time>2019-04-17T09:02:17Z</time>
      </trkpt>
      <trkpt lat="43.45186" lon="6.19257">
        <ele>333</ele>
        <time>2019-04-17T09:02:31Z</time>
      </trkpt>
      <trkpt lat="43.45184" lon="6.19254">
        <ele>330</ele>
        <time>2019-04-17T09:03:06Z</time>
      </trkpt>
      <trkpt lat="43.45178" lon="6.19247">
        <ele>329</ele>
        <time>2019-04-17T09:04:06Z</time>
      </trkpt>
      <trkpt lat="43.45171" lon="6.19237">
        <ele>332</ele>
        <time>2019-04-17T09:04:39Z</time>
      </trkpt>
      <trkpt lat="43.45171" lon="6.19226">
        <ele>332</ele>
        <time>2019-04-17T09:05:23Z</time>
      </trkpt>
      <trkpt lat="43.45171" lon="6.19219">
        <ele>336</ele>
        <time>2019-04-17T09:05:33Z</time>
      </trkpt>
      <trkpt lat="43.45169" lon="6.19211">
        <ele>336</ele>
        <time>2019-04-17T09:05:38Z</time>
      </trkpt>
      <trkpt lat="43.45169" lon="6.19204">
        <ele>335</ele>
        <time>2019-04-17T09:05:59Z</time>
      </trkpt>
      <trkpt lat="43.45171" lon="6.19197">
        <ele>335</ele>
        <time>2019-04-17T09:06:16Z</time>
      </trkpt>
      <trkpt lat="43.4517" lon="6.1919">
        <ele>334</ele>
        <time>2019-04-17T09:07:20Z</time>
      </trkpt>
      <trkpt lat="43.45169" lon="6.19182">
        <ele>334</ele>
        <time>2019-04-17T09:07:28Z</time>
      </trkpt>
      <trkpt lat="43.45167" lon="6.19177">
        <ele>334</ele>
        <time>2019-04-17T09:09:25Z</time>
      </trkpt>
      <trkpt lat="43.45167" lon="6.19186">
        <ele>333</ele>
        <time>2019-04-17T09:15:55Z</time>
      </trkpt>
      <trkpt lat="43.45169" lon="6.19196">
        <ele>333</ele>
        <time>2019-04-17T09:16:03Z</time>
      </trkpt>
      <trkpt lat="43.45168" lon="6.19214">
        <ele>334</ele>
        <time>2019-04-17T09:16:23Z</time>
      </trkpt>
      <trkpt lat="43.45169" lon="6.19223">
        <ele>335</ele>
        <time>2019-04-17T09:16:32Z</time>
      </trkpt>
      <trkpt lat="43.45168" lon="6.19232">
        <ele>334</ele>
        <time>2019-04-17T09:16:40Z</time>
      </trkpt>
      <trkpt lat="43.45172" lon="6.19241">
        <ele>334</ele>
        <time>2019-04-17T09:16:48Z</time>
      </trkpt>
      <trkpt lat="43.45171" lon="6.1925">
        <ele>335</ele>
        <time>2019-04-17T09:17:02Z</time>
      </trkpt>
      <trkpt lat="43.4517" lon="6.19265">
        <ele>333</ele>
        <time>2019-04-17T09:17:39Z</time>
      </trkpt>
      <trkpt lat="43.45169" lon="6.19274">
        <ele>332</ele>
        <time>2019-04-17T09:18:03Z</time>
      </trkpt>
      <trkpt lat="43.45171" lon="6.19281">
        <ele>330</ele>
        <time>2019-04-17T09:18:17Z</time>
      </trkpt>
      <trkpt lat="43.45174" lon="6.19285">
        <ele>329</ele>
        <time>2019-04-17T09:18:50Z</time>
      </trkpt>
      <trkpt lat="43.45173" lon="6.19304">
        <ele>325</ele>
        <time>2019-04-17T09:19:29Z</time>
      </trkpt>
      <trkpt lat="43.45169" lon="6.19313">
        <ele>325</ele>
        <time>2019-04-17T09:19:40Z</time>
      </trkpt>
      <trkpt lat="43.45169" lon="6.19322">
        <ele>325</ele>
        <time>2019-04-17T09:19:46Z</time>
      </trkpt>
      <trkpt lat="43.45175" lon="6.19325">
        <ele>322</ele>
        <time>2019-04-17T09:20:07Z</time>
      </trkpt>
      <trkpt lat="43.45174" lon="6.19334">
        <ele>320</ele>
        <time>2019-04-17T09:20:19Z</time>
      </trkpt>
      <trkpt lat="43.45173" lon="6.19344">
        <ele>320</ele>
        <time>2019-04-17T09:20:31Z</time>
      </trkpt>
      <trkpt lat="43.4517" lon="6.19353">
        <ele>320</ele>
        <time>2019-04-17T09:20:40Z</time>
      </trkpt>
      <trkpt lat="43.45171" lon="6.19363">
        <ele>319</ele>
        <time>2019-04-17T09:20:48Z</time>
      </trkpt>
      <trkpt lat="43.45172" lon="6.19374">
        <ele>318</ele>
        <time>2019-04-17T09:20:57Z</time>
      </trkpt>
      <trkpt lat="43.45169" lon="6.19383">
        <ele>317</ele>
        <time>2019-04-17T09:21:05Z</time>
      </trkpt>
      <trkpt lat="43.45166" lon="6.19393">
        <ele>317</ele>
        <time>2019-04-17T09:21:14Z</time>
      </trkpt>
      <trkpt lat="43.45164" lon="6.19412">
        <ele>317</ele>
        <time>2019-04-17T09:21:34Z</time>
      </trkpt>
      <trkpt lat="43.45161" lon="6.19422">
        <ele>317</ele>
        <time>2019-04-17T09:21:45Z</time>
      </trkpt>
      <trkpt lat="43.45167" lon="6.19452">
        <ele>317</ele>
        <time>2019-04-17T09:22:13Z</time>
      </trkpt>
      <trkpt lat="43.45169" lon="6.19461">
        <ele>317</ele>
        <time>2019-04-17T09:22:26Z</time>
      </trkpt>
      <trkpt lat="43.4517" lon="6.1947">
        <ele>317</ele>
        <time>2019-04-17T09:22:35Z</time>
      </trkpt>
      <trkpt lat="43.4517" lon="6.19479">
        <ele>318</ele>
        <time>2019-04-17T09:22:42Z</time>
      </trkpt>
      <trkpt lat="43.4517" lon="6.19489">
        <ele>317</ele>
        <time>2019-04-17T09:22:53Z</time>
      </trkpt>
      <trkpt lat="43.45172" lon="6.19497">
        <ele>317</ele>
        <time>2019-04-17T09:23:04Z</time>
      </trkpt>
      <trkpt lat="43.45172" lon="6.19505">
        <ele>317</ele>
        <time>2019-04-17T09:23:17Z</time>
      </trkpt>
      <trkpt lat="43.45176" lon="6.19512">
        <ele>314</ele>
        <time>2019-04-17T09:23:34Z</time>
      </trkpt>
      <trkpt lat="43.4518" lon="6.19516">
        <ele>313</ele>
        <time>2019-04-17T09:23:44Z</time>
      </trkpt>
      <trkpt lat="43.45186" lon="6.19514">
        <ele>312</ele>
        <time>2019-04-17T09:23:52Z</time>
      </trkpt>
      <trkpt lat="43.45192" lon="6.19517">
        <ele>312</ele>
        <time>2019-04-17T09:24:00Z</time>
      </trkpt>
      <trkpt lat="43.45192" lon="6.19524">
        <ele>312</ele>
        <time>2019-04-17T09:24:08Z</time>
      </trkpt>
      <trkpt lat="43.45195" lon="6.19532">
        <ele>311</ele>
        <time>2019-04-17T09:24:18Z</time>
      </trkpt>
      <trkpt lat="43.45199" lon="6.19538">
        <ele>310</ele>
        <time>2019-04-17T09:24:31Z</time>
      </trkpt>
      <trkpt lat="43.4521" lon="6.19544">
        <ele>305</ele>
        <time>2019-04-17T09:25:18Z</time>
      </trkpt>
      <trkpt lat="43.45214" lon="6.19548">
        <ele>302</ele>
        <time>2019-04-17T09:25:33Z</time>
      </trkpt>
      <trkpt lat="43.45226" lon="6.19554">
        <ele>299</ele>
        <time>2019-04-17T09:26:02Z</time>
      </trkpt>
      <trkpt lat="43.45224" lon="6.19561">
        <ele>294</ele>
        <time>2019-04-17T09:28:17Z</time>
      </trkpt>
      <trkpt lat="43.45217" lon="6.19564">
        <ele>294</ele>
        <time>2019-04-17T09:28:26Z</time>
      </trkpt>
      <trkpt lat="43.45195" lon="6.19559">
        <ele>298</ele>
        <time>2019-04-17T09:28:50Z</time>
      </trkpt>
      <trkpt lat="43.45184" lon="6.19563">
        <ele>297</ele>
        <time>2019-04-17T09:29:18Z</time>
      </trkpt>
      <trkpt lat="43.45172" lon="6.19557">
        <ele>296</ele>
        <time>2019-04-17T09:29:28Z</time>
      </trkpt>
      <trkpt lat="43.45167" lon="6.1955">
        <ele>296</ele>
        <time>2019-04-17T09:29:36Z</time>
      </trkpt>
      <trkpt lat="43.45161" lon="6.19536">
        <ele>297</ele>
        <time>2019-04-17T09:30:09Z</time>
      </trkpt>
      <trkpt lat="43.45157" lon="6.19527">
        <ele>297</ele>
        <time>2019-04-17T09:30:17Z</time>
      </trkpt>
      <trkpt lat="43.45131" lon="6.195">
        <ele>297</ele>
        <time>2019-04-17T09:30:48Z</time>
      </trkpt>
      <trkpt lat="43.45106" lon="6.19475">
        <ele>294</ele>
        <time>2019-04-17T09:31:20Z</time>
      </trkpt>
      <trkpt lat="43.45101" lon="6.19466">
        <ele>294</ele>
        <time>2019-04-17T09:31:28Z</time>
      </trkpt>
      <trkpt lat="43.45084" lon="6.19455">
        <ele>293</ele>
        <time>2019-04-17T09:31:49Z</time>
      </trkpt>
      <trkpt lat="43.45079" lon="6.19446">
        <ele>292</ele>
        <time>2019-04-17T09:31:59Z</time>
      </trkpt>
      <trkpt lat="43.45073" lon="6.19438">
        <ele>291</ele>
        <time>2019-04-17T09:32:08Z</time>
      </trkpt>
      <trkpt lat="43.45066" lon="6.19423">
        <ele>291</ele>
        <time>2019-04-17T09:32:36Z</time>
      </trkpt>
      <trkpt lat="43.45066" lon="6.19413">
        <ele>288</ele>
        <time>2019-04-17T09:32:43Z</time>
      </trkpt>
      <trkpt lat="43.45067" lon="6.19398">
        <ele>286</ele>
        <time>2019-04-17T09:32:55Z</time>
      </trkpt>
      <trkpt lat="43.4507" lon="6.19388">
        <ele>287</ele>
        <time>2019-04-17T09:33:03Z</time>
      </trkpt>
      <trkpt lat="43.45072" lon="6.1938">
        <ele>287</ele>
        <time>2019-04-17T09:33:10Z</time>
      </trkpt>
      <trkpt lat="43.45074" lon="6.19369">
        <ele>286</ele>
        <time>2019-04-17T09:33:17Z</time>
      </trkpt>
      <trkpt lat="43.45077" lon="6.19359">
        <ele>285</ele>
        <time>2019-04-17T09:33:24Z</time>
      </trkpt>
      <trkpt lat="43.4508" lon="6.19349">
        <ele>286</ele>
        <time>2019-04-17T09:33:33Z</time>
      </trkpt>
      <trkpt lat="43.45084" lon="6.1934">
        <ele>285</ele>
        <time>2019-04-17T09:33:40Z</time>
      </trkpt>
      <trkpt lat="43.45086" lon="6.19328">
        <ele>285</ele>
        <time>2019-04-17T09:33:49Z</time>
      </trkpt>
      <trkpt lat="43.4509" lon="6.19307">
        <ele>284</ele>
        <time>2019-04-17T09:34:06Z</time>
      </trkpt>
      <trkpt lat="43.45086" lon="6.19297">
        <ele>280</ele>
        <time>2019-04-17T09:34:57Z</time>
      </trkpt>
      <trkpt lat="43.45087" lon="6.19293">
        <ele>274</ele>
        <time>2019-04-17T09:35:43Z</time>
      </trkpt>
      <trkpt lat="43.45091" lon="6.19284">
        <ele>275</ele>
        <time>2019-04-17T09:35:51Z</time>
      </trkpt>
      <trkpt lat="43.45092" lon="6.19275">
        <ele>278</ele>
        <time>2019-04-17T09:36:06Z</time>
      </trkpt>
      <trkpt lat="43.45096" lon="6.19268">
        <ele>277</ele>
        <time>2019-04-17T09:36:13Z</time>
      </trkpt>
      <trkpt lat="43.45099" lon="6.19247">
        <ele>275</ele>
        <time>2019-04-17T09:36:29Z</time>
      </trkpt>
      <trkpt lat="43.45096" lon="6.19216">
        <ele>275</ele>
        <time>2019-04-17T09:36:52Z</time>
      </trkpt>
      <trkpt lat="43.45093" lon="6.19207">
        <ele>274</ele>
        <time>2019-04-17T09:36:59Z</time>
      </trkpt>
      <trkpt lat="43.45095" lon="6.19198">
        <ele>271</ele>
        <time>2019-04-17T09:37:23Z</time>
      </trkpt>
      <trkpt lat="43.45093" lon="6.1919">
        <ele>271</ele>
        <time>2019-04-17T09:37:29Z</time>
      </trkpt>
      <trkpt lat="43.45088" lon="6.19173">
        <ele>272</ele>
        <time>2019-04-17T09:37:45Z</time>
      </trkpt>
      <trkpt lat="43.45083" lon="6.1915">
        <ele>271</ele>
        <time>2019-04-17T09:38:00Z</time>
      </trkpt>
      <trkpt lat="43.4508" lon="6.1914">
        <ele>269</ele>
        <time>2019-04-17T09:38:09Z</time>
      </trkpt>
      <trkpt lat="43.45077" lon="6.19134">
        <ele>267</ele>
        <time>2019-04-17T09:38:26Z</time>
      </trkpt>
      <trkpt lat="43.45075" lon="6.19124">
        <ele>263</ele>
        <time>2019-04-17T09:39:00Z</time>
      </trkpt>
      <trkpt lat="43.45073" lon="6.19113">
        <ele>263</ele>
        <time>2019-04-17T09:39:06Z</time>
      </trkpt>
      <trkpt lat="43.4507" lon="6.19103">
        <ele>263</ele>
        <time>2019-04-17T09:39:13Z</time>
      </trkpt>
      <trkpt lat="43.45069" lon="6.19092">
        <ele>262</ele>
        <time>2019-04-17T09:39:22Z</time>
      </trkpt>
      <trkpt lat="43.45066" lon="6.1908">
        <ele>263</ele>
        <time>2019-04-17T09:39:31Z</time>
      </trkpt>
      <trkpt lat="43.45063" lon="6.19072">
        <ele>263</ele>
        <time>2019-04-17T09:39:38Z</time>
      </trkpt>
      <trkpt lat="43.45058" lon="6.19063">
        <ele>260</ele>
        <time>2019-04-17T09:39:54Z</time>
      </trkpt>
      <trkpt lat="43.45056" lon="6.19043">
        <ele>259</ele>
        <time>2019-04-17T09:40:29Z</time>
      </trkpt>
      <trkpt lat="43.45053" lon="6.19035">
        <ele>259</ele>
        <time>2019-04-17T09:40:36Z</time>
      </trkpt>
      <trkpt lat="43.45049" lon="6.19016">
        <ele>257</ele>
        <time>2019-04-17T09:40:48Z</time>
      </trkpt>
      <trkpt lat="43.45047" lon="6.19005">
        <ele>258</ele>
        <time>2019-04-17T09:40:55Z</time>
      </trkpt>
      <trkpt lat="43.45046" lon="6.18996">
        <ele>258</ele>
        <time>2019-04-17T09:41:01Z</time>
      </trkpt>
      <trkpt lat="43.45046" lon="6.18987">
        <ele>256</ele>
        <time>2019-04-17T09:41:07Z</time>
      </trkpt>
      <trkpt lat="43.45045" lon="6.18977">
        <ele>256</ele>
        <time>2019-04-17T09:41:13Z</time>
      </trkpt>
      <trkpt lat="43.45044" lon="6.18968">
        <ele>254</ele>
        <time>2019-04-17T09:41:18Z</time>
      </trkpt>
      <trkpt lat="43.45043" lon="6.18957">
        <ele>254</ele>
        <time>2019-04-17T09:41:26Z</time>
      </trkpt>
      <trkpt lat="43.45045" lon="6.18947">
        <ele>255</ele>
        <time>2019-04-17T09:41:34Z</time>
      </trkpt>
      <trkpt lat="43.45063" lon="6.18894">
        <ele>256</ele>
        <time>2019-04-17T09:42:08Z</time>
      </trkpt>
      <trkpt lat="43.45062" lon="6.18882">
        <ele>256</ele>
        <time>2019-04-17T09:42:15Z</time>
      </trkpt>
      <trkpt lat="43.45056" lon="6.18875">
        <ele>255</ele>
        <time>2019-04-17T09:42:19Z</time>
      </trkpt>
      <trkpt lat="43.45049" lon="6.18876">
        <ele>253</ele>
        <time>2019-04-17T09:42:27Z</time>
      </trkpt>
      <trkpt lat="43.45044" lon="6.18884">
        <ele>252</ele>
        <time>2019-04-17T09:42:32Z</time>
      </trkpt>
      <trkpt lat="43.4503" lon="6.18906">
        <ele>252</ele>
        <time>2019-04-17T09:42:59Z</time>
      </trkpt>
      <trkpt lat="43.45027" lon="6.18915">
        <ele>250</ele>
        <time>2019-04-17T09:43:06Z</time>
      </trkpt>
      <trkpt lat="43.45023" lon="6.18923">
        <ele>249</ele>
        <time>2019-04-17T09:43:12Z</time>
      </trkpt>
      <trkpt lat="43.45019" lon="6.18931">
        <ele>249</ele>
        <time>2019-04-17T09:43:20Z</time>
      </trkpt>
      <trkpt lat="43.45012" lon="6.18937">
        <ele>248</ele>
        <time>2019-04-17T09:43:27Z</time>
      </trkpt>
      <trkpt lat="43.45008" lon="6.18957">
        <ele>245</ele>
        <time>2019-04-17T09:43:45Z</time>
      </trkpt>
      <trkpt lat="43.45006" lon="6.18966">
        <ele>242</ele>
        <time>2019-04-17T09:43:52Z</time>
      </trkpt>
      <trkpt lat="43.45003" lon="6.18975">
        <ele>241</ele>
        <time>2019-04-17T09:44:03Z</time>
      </trkpt>
      <trkpt lat="43.45001" lon="6.18984">
        <ele>241</ele>
        <time>2019-04-17T09:44:09Z</time>
      </trkpt>
      <trkpt lat="43.45002" lon="6.19006">
        <ele>239</ele>
        <time>2019-04-17T09:44:25Z</time>
      </trkpt>
      <trkpt lat="43.45001" lon="6.19016">
        <ele>237</ele>
        <time>2019-04-17T09:44:32Z</time>
      </trkpt>
      <trkpt lat="43.44998" lon="6.19026">
        <ele>238</ele>
        <time>2019-04-17T09:44:38Z</time>
      </trkpt>
      <trkpt lat="43.45" lon="6.19035">
        <ele>238</ele>
        <time>2019-04-17T09:44:45Z</time>
      </trkpt>
      <trkpt lat="43.45002" lon="6.19049">
        <ele>238</ele>
        <time>2019-04-17T09:45:56Z</time>
      </trkpt>
      <trkpt lat="43.45" lon="6.19056">
        <ele>237</ele>
        <time>2019-04-17T09:46:03Z</time>
      </trkpt>
      <trkpt lat="43.45002" lon="6.19067">
        <ele>236</ele>
        <time>2019-04-17T09:46:11Z</time>
      </trkpt>
      <trkpt lat="43.45001" lon="6.19076">
        <ele>235</ele>
        <time>2019-04-17T09:46:17Z</time>
      </trkpt>
      <trkpt lat="43.45003" lon="6.19086">
        <ele>235</ele>
        <time>2019-04-17T09:46:26Z</time>
      </trkpt>
      <trkpt lat="43.45003" lon="6.19095">
        <ele>235</ele>
        <time>2019-04-17T09:46:33Z</time>
      </trkpt>
      <trkpt lat="43.45003" lon="6.19104">
        <ele>234</ele>
        <time>2019-04-17T09:46:40Z</time>
      </trkpt>
      <trkpt lat="43.45004" lon="6.19113">
        <ele>233</ele>
        <time>2019-04-17T09:46:48Z</time>
      </trkpt>
      <trkpt lat="43.45001" lon="6.19121">
        <ele>232</ele>
        <time>2019-04-17T09:47:02Z</time>
      </trkpt>
      <trkpt lat="43.45001" lon="6.1913">
        <ele>230</ele>
        <time>2019-04-17T09:47:10Z</time>
      </trkpt>
      <trkpt lat="43.45" lon="6.1914">
        <ele>228</ele>
        <time>2019-04-17T09:48:09Z</time>
      </trkpt>
      <trkpt lat="43.44997" lon="6.19151">
        <ele>228</ele>
        <time>2019-04-17T09:48:20Z</time>
      </trkpt>
      <trkpt lat="43.44993" lon="6.19162">
        <ele>231</ele>
        <time>2019-04-17T09:48:29Z</time>
      </trkpt>
      <trkpt lat="43.44991" lon="6.19174">
        <ele>232</ele>
        <time>2019-04-17T09:48:38Z</time>
      </trkpt>
      <trkpt lat="43.44988" lon="6.19198">
        <ele>230</ele>
        <time>2019-04-17T09:48:55Z</time>
      </trkpt>
      <trkpt lat="43.44986" lon="6.19207">
        <ele>227</ele>
        <time>2019-04-17T09:49:02Z</time>
      </trkpt>
      <trkpt lat="43.44983" lon="6.19217">
        <ele>226</ele>
        <time>2019-04-17T09:49:12Z</time>
      </trkpt>
      <trkpt lat="43.44981" lon="6.19227">
        <ele>225</ele>
        <time>2019-04-17T09:49:19Z</time>
      </trkpt>
      <trkpt lat="43.44975" lon="6.19248">
        <ele>225</ele>
        <time>2019-04-17T09:49:38Z</time>
      </trkpt>
      <trkpt lat="43.4497" lon="6.19259">
        <ele>226</ele>
        <time>2019-04-17T09:49:45Z</time>
      </trkpt>
      <trkpt lat="43.44966" lon="6.19271">
        <ele>226</ele>
        <time>2019-04-17T09:49:51Z</time>
      </trkpt>
      <trkpt lat="43.44964" lon="6.19283">
        <ele>227</ele>
        <time>2019-04-17T09:50:00Z</time>
      </trkpt>
      <trkpt lat="43.44961" lon="6.19293">
        <ele>226</ele>
        <time>2019-04-17T09:50:06Z</time>
      </trkpt>
      <trkpt lat="43.44959" lon="6.19315">
        <ele>225</ele>
        <time>2019-04-17T09:50:19Z</time>
      </trkpt>
      <trkpt lat="43.44959" lon="6.19325">
        <ele>223</ele>
        <time>2019-04-17T09:50:24Z</time>
      </trkpt>
      <trkpt lat="43.44959" lon="6.19333">
        <ele>222</ele>
        <time>2019-04-17T09:50:30Z</time>
      </trkpt>
      <trkpt lat="43.44959" lon="6.19344">
        <ele>220</ele>
        <time>2019-04-17T09:50:36Z</time>
      </trkpt>
      <trkpt lat="43.44959" lon="6.19374">
        <ele>218</ele>
        <time>2019-04-17T09:50:55Z</time>
      </trkpt>
      <trkpt lat="43.44953" lon="6.19371">
        <ele>218</ele>
        <time>2019-04-17T09:51:20Z</time>
      </trkpt>
      <trkpt lat="43.44949" lon="6.19359">
        <ele>218</ele>
        <time>2019-04-17T09:51:30Z</time>
      </trkpt>
      <trkpt lat="43.44944" lon="6.19336">
        <ele>216</ele>
        <time>2019-04-17T09:51:47Z</time>
      </trkpt>
      <trkpt lat="43.44932" lon="6.19318">
        <ele>213</ele>
        <time>2019-04-17T09:52:06Z</time>
      </trkpt>
      <trkpt lat="43.44928" lon="6.19307">
        <ele>211</ele>
        <time>2019-04-17T09:52:17Z</time>
      </trkpt>
      <trkpt lat="43.44927" lon="6.19289">
        <ele>211</ele>
        <time>2019-04-17T09:52:37Z</time>
      </trkpt>
      <trkpt lat="43.44926" lon="6.1928">
        <ele>211</ele>
        <time>2019-04-17T09:52:45Z</time>
      </trkpt>
      <trkpt lat="43.44927" lon="6.1927">
        <ele>209</ele>
        <time>2019-04-17T09:53:19Z</time>
      </trkpt>
      <trkpt lat="43.44924" lon="6.1926">
        <ele>209</ele>
        <time>2019-04-17T09:53:27Z</time>
      </trkpt>
      <trkpt lat="43.4492" lon="6.1925">
        <ele>207</ele>
        <time>2019-04-17T09:53:35Z</time>
      </trkpt>
      <trkpt lat="43.44911" lon="6.19234">
        <ele>204</ele>
        <time>2019-04-17T09:53:48Z</time>
      </trkpt>
      <trkpt lat="43.44906" lon="6.19228">
        <ele>204</ele>
        <time>2019-04-17T09:53:54Z</time>
      </trkpt>
      <trkpt lat="43.44902" lon="6.19221">
        <ele>204</ele>
        <time>2019-04-17T09:54:00Z</time>
      </trkpt>
      <trkpt lat="43.44891" lon="6.19208">
        <ele>204</ele>
        <time>2019-04-17T09:54:13Z</time>
      </trkpt>
      <trkpt lat="43.44889" lon="6.19201">
        <ele>203</ele>
        <time>2019-04-17T09:54:18Z</time>
      </trkpt>
      <trkpt lat="43.44888" lon="6.19193">
        <ele>202</ele>
        <time>2019-04-17T09:54:25Z</time>
      </trkpt>
      <trkpt lat="43.44887" lon="6.19184">
        <ele>202</ele>
        <time>2019-04-17T09:54:32Z</time>
      </trkpt>
      <trkpt lat="43.44888" lon="6.19173">
        <ele>202</ele>
        <time>2019-04-17T09:54:40Z</time>
      </trkpt>
      <trkpt lat="43.44886" lon="6.19162">
        <ele>202</ele>
        <time>2019-04-17T09:54:47Z</time>
      </trkpt>
      <trkpt lat="43.44879" lon="6.19162">
        <ele>202</ele>
        <time>2019-04-17T09:54:53Z</time>
      </trkpt>
      <trkpt lat="43.44865" lon="6.19201">
        <ele>197</ele>
        <time>2019-04-17T09:55:23Z</time>
      </trkpt>
      <trkpt lat="43.44863" lon="6.19228">
        <ele>196</ele>
        <time>2019-04-17T09:55:41Z</time>
      </trkpt>
      <trkpt lat="43.44861" lon="6.19235">
        <ele>197</ele>
        <time>2019-04-17T09:55:50Z</time>
      </trkpt>
      <trkpt lat="43.44863" lon="6.19241">
        <ele>196</ele>
        <time>2019-04-17T09:56:42Z</time>
      </trkpt>
      <trkpt lat="43.44862" lon="6.19247">
        <ele>195</ele>
        <time>2019-04-17T09:56:48Z</time>
      </trkpt>
      <trkpt lat="43.44864" lon="6.19273">
        <ele>193</ele>
        <time>2019-04-17T09:57:05Z</time>
      </trkpt>
      <trkpt lat="43.44868" lon="6.19292">
        <ele>193</ele>
        <time>2019-04-17T09:57:18Z</time>
      </trkpt>
      <trkpt lat="43.4487" lon="6.19302">
        <ele>193</ele>
        <time>2019-04-17T09:57:25Z</time>
      </trkpt>
      <trkpt lat="43.44867" lon="6.1931">
        <ele>193</ele>
        <time>2019-04-17T09:57:31Z</time>
      </trkpt>
      <trkpt lat="43.44861" lon="6.19308">
        <ele>193</ele>
        <time>2019-04-17T09:57:43Z</time>
      </trkpt>
      <trkpt lat="43.44856" lon="6.19304">
        <ele>193</ele>
        <time>2019-04-17T09:57:52Z</time>
      </trkpt>
      <trkpt lat="43.44851" lon="6.193">
        <ele>193</ele>
        <time>2019-04-17T09:57:59Z</time>
      </trkpt>
      <trkpt lat="43.4484" lon="6.19296">
        <ele>193</ele>
        <time>2019-04-17T09:58:12Z</time>
      </trkpt>
      <trkpt lat="43.44833" lon="6.19297">
        <ele>192</ele>
        <time>2019-04-17T09:58:20Z</time>
      </trkpt>
      <trkpt lat="43.44827" lon="6.19302">
        <ele>190</ele>
        <time>2019-04-17T09:58:29Z</time>
      </trkpt>
      <trkpt lat="43.44825" lon="6.19312">
        <ele>189</ele>
        <time>2019-04-17T09:58:38Z</time>
      </trkpt>
      <trkpt lat="43.44821" lon="6.19321">
        <ele>188</ele>
        <time>2019-04-17T09:58:45Z</time>
      </trkpt>
      <trkpt lat="43.44819" lon="6.19328">
        <ele>185</ele>
        <time>2019-04-17T09:58:54Z</time>
      </trkpt>
      <trkpt lat="43.44815" lon="6.19337">
        <ele>184</ele>
        <time>2019-04-17T09:59:00Z</time>
      </trkpt>
      <trkpt lat="43.44819" lon="6.19357">
        <ele>182</ele>
        <time>2019-04-17T09:59:19Z</time>
      </trkpt>
      <trkpt lat="43.44831" lon="6.19369">
        <ele>182</ele>
        <time>2019-04-17T09:59:47Z</time>
      </trkpt>
      <trkpt lat="43.44836" lon="6.19378">
        <ele>181</ele>
        <time>2019-04-17T09:59:54Z</time>
      </trkpt>
      <trkpt lat="43.44837" lon="6.19389">
        <ele>180</ele>
        <time>2019-04-17T10:00:05Z</time>
      </trkpt>
      <trkpt lat="43.4484" lon="6.19401">
        <ele>180</ele>
        <time>2019-04-17T10:00:12Z</time>
      </trkpt>
      <trkpt lat="43.44844" lon="6.19412">
        <ele>179</ele>
        <time>2019-04-17T10:00:18Z</time>
      </trkpt>
      <trkpt lat="43.44848" lon="6.19422">
        <ele>178</ele>
        <time>2019-04-17T10:00:26Z</time>
      </trkpt>
      <trkpt lat="43.44852" lon="6.1943">
        <ele>176</ele>
        <time>2019-04-17T10:00:36Z</time>
      </trkpt>
      <trkpt lat="43.44859" lon="6.1943">
        <ele>176</ele>
        <time>2019-04-17T10:00:57Z</time>
      </trkpt>
      <trkpt lat="43.44866" lon="6.1943">
        <ele>178</ele>
        <time>2019-04-17T10:01:06Z</time>
      </trkpt>
      <trkpt lat="43.44871" lon="6.19436">
        <ele>179</ele>
        <time>2019-04-17T10:01:36Z</time>
      </trkpt>
      <trkpt lat="43.44878" lon="6.19434">
        <ele>181</ele>
        <time>2019-04-17T10:02:25Z</time>
      </trkpt>
      <trkpt lat="43.44875" lon="6.19446">
        <ele>185</ele>
        <time>2019-04-17T10:03:27Z</time>
      </trkpt>
      <trkpt lat="43.44874" lon="6.1944">
        <ele>188</ele>
        <time>2019-04-17T10:05:49Z</time>
      </trkpt>
      <trkpt lat="43.44874" lon="6.1943">
        <ele>188</ele>
        <time>2019-04-17T10:06:20Z</time>
      </trkpt>
      <trkpt lat="43.44869" lon="6.19426">
        <ele>189</ele>
        <time>2019-04-17T10:06:47Z</time>
      </trkpt>
      <trkpt lat="43.44866" lon="6.19434">
        <ele>189</ele>
        <time>2019-04-17T10:07:05Z</time>
      </trkpt>
      <trkpt lat="43.44865" lon="6.19442">
        <ele>189</ele>
        <time>2019-04-17T10:07:16Z</time>
      </trkpt>
      <trkpt lat="43.44871" lon="6.19445">
        <ele>202</ele>
        <time>2019-04-17T10:09:48Z</time>
      </trkpt>
      <trkpt lat="43.44875" lon="6.19439">
        <ele>191</ele>
        <time>2019-04-17T10:10:18Z</time>
      </trkpt>
      <trkpt lat="43.44872" lon="6.19431">
        <ele>191</ele>
        <time>2019-04-17T10:10:33Z</time>
      </trkpt>
      <trkpt lat="43.44874" lon="6.19432">
        <ele>188</ele>
        <time>2019-04-17T10:10:53Z</time>
      </trkpt>
      <trkpt lat="43.44874" lon="6.19438">
        <ele>188</ele>
        <time>2019-04-17T10:11:03Z</time>
      </trkpt>
      <trkpt lat="43.44867" lon="6.19444">
        <ele>189</ele>
        <time>2019-04-17T10:12:04Z</time>
      </trkpt>
      <trkpt lat="43.44867" lon="6.19449">
        <ele>183</ele>
        <time>2019-04-17T10:45:12Z</time>
      </trkpt>
      <trkpt lat="43.44874" lon="6.19451">
        <ele>183</ele>
        <time>2019-04-17T10:45:48Z</time>
      </trkpt>
      <trkpt lat="43.44875" lon="6.19448">
        <ele>183</ele>
        <time>2019-04-17T10:47:18Z</time>
      </trkpt>
      <trkpt lat="43.4488" lon="6.19434">
        <ele>183</ele>
        <time>2019-04-17T10:48:54Z</time>
      </trkpt>
      <trkpt lat="43.44871" lon="6.19434">
        <ele>183</ele>
        <time>2019-04-17T10:49:10Z</time>
      </trkpt>
      <trkpt lat="43.44869" lon="6.1944">
        <ele>182</ele>
        <time>2019-04-17T10:52:55Z</time>
      </trkpt>
      <trkpt lat="43.44865" lon="6.19445">
        <ele>182</ele>
        <time>2019-04-17T10:53:08Z</time>
      </trkpt>
      <trkpt lat="43.44871" lon="6.19434">
        <ele>182</ele>
        <time>2019-04-17T10:54:44Z</time>
      </trkpt>
      <trkpt lat="43.4487" lon="6.19425">
        <ele>177</ele>
        <time>2019-04-17T11:01:32Z</time>
      </trkpt>
      <trkpt lat="43.44862" lon="6.19421">
        <ele>177</ele>
        <time>2019-04-17T11:01:58Z</time>
      </trkpt>
      <trkpt lat="43.44853" lon="6.1942">
        <ele>173</ele>
        <time>2019-04-17T11:02:08Z</time>
      </trkpt>
      <trkpt lat="43.4485" lon="6.19431">
        <ele>171</ele>
        <time>2019-04-17T11:02:16Z</time>
      </trkpt>
      <trkpt lat="43.4485" lon="6.19429">
        <ele>167</ele>
        <time>2019-04-17T11:03:47Z</time>
      </trkpt>
      <trkpt lat="43.44855" lon="6.19438">
        <ele>167</ele>
        <time>2019-04-17T11:04:25Z</time>
      </trkpt>
      <trkpt lat="43.44856" lon="6.19446">
        <ele>165</ele>
        <time>2019-04-17T11:04:40Z</time>
      </trkpt>
      <trkpt lat="43.4486" lon="6.19455">
        <ele>163</ele>
        <time>2019-04-17T11:05:44Z</time>
      </trkpt>
      <trkpt lat="43.44865" lon="6.19465">
        <ele>169</ele>
        <time>2019-04-17T11:05:54Z</time>
      </trkpt>
      <trkpt lat="43.44869" lon="6.19476">
        <ele>172</ele>
        <time>2019-04-17T11:06:05Z</time>
      </trkpt>
      <trkpt lat="43.44959" lon="6.19597">
        <ele>165</ele>
        <time>2019-04-17T11:08:18Z</time>
      </trkpt>
      <trkpt lat="43.44948" lon="6.19605">
        <ele>171</ele>
        <time>2019-04-17T11:08:24Z</time>
      </trkpt>
      <trkpt lat="43.44948" lon="6.1961">
        <ele>170</ele>
        <time>2019-04-17T11:08:37Z</time>
      </trkpt>
      <trkpt lat="43.44952" lon="6.1961">
        <ele>170</ele>
        <time>2019-04-17T11:08:59Z</time>
      </trkpt>
      <trkpt lat="43.44959" lon="6.19616">
        <ele>171</ele>
        <time>2019-04-17T11:09:06Z</time>
      </trkpt>
      <trkpt lat="43.44963" lon="6.1962">
        <ele>171</ele>
        <time>2019-04-17T11:09:10Z</time>
      </trkpt>
      <trkpt lat="43.44968" lon="6.19624">
        <ele>170</ele>
        <time>2019-04-17T11:09:14Z</time>
      </trkpt>
      <trkpt lat="43.44976" lon="6.19633">
        <ele>171</ele>
        <time>2019-04-17T11:09:22Z</time>
      </trkpt>
      <trkpt lat="43.44979" lon="6.19638">
        <ele>172</ele>
        <time>2019-04-17T11:09:26Z</time>
      </trkpt>
      <trkpt lat="43.44997" lon="6.19655">
        <ele>173</ele>
        <time>2019-04-17T11:09:41Z</time>
      </trkpt>
      <trkpt lat="43.45002" lon="6.19657">
        <ele>174</ele>
        <time>2019-04-17T11:09:45Z</time>
      </trkpt>
      <trkpt lat="43.45011" lon="6.19665">
        <ele>173</ele>
        <time>2019-04-17T11:09:59Z</time>
      </trkpt>
      <trkpt lat="43.45015" lon="6.19671">
        <ele>173</ele>
        <time>2019-04-17T11:10:21Z</time>
      </trkpt>
      <trkpt lat="43.45019" lon="6.19673">
        <ele>173</ele>
        <time>2019-04-17T11:10:26Z</time>
      </trkpt>
      <trkpt lat="43.45029" lon="6.19686">
        <ele>173</ele>
        <time>2019-04-17T11:10:37Z</time>
      </trkpt>
      <trkpt lat="43.45053" lon="6.19693">
        <ele>172</ele>
        <time>2019-04-17T11:11:11Z</time>
      </trkpt>
      <trkpt lat="43.45059" lon="6.19695">
        <ele>173</ele>
        <time>2019-04-17T11:11:17Z</time>
      </trkpt>
      <trkpt lat="43.45069" lon="6.19702">
        <ele>173</ele>
        <time>2019-04-17T11:11:24Z</time>
      </trkpt>
      <trkpt lat="43.45073" lon="6.19707">
        <ele>174</ele>
        <time>2019-04-17T11:11:41Z</time>
      </trkpt>
      <trkpt lat="43.45093" lon="6.19721">
        <ele>174</ele>
        <time>2019-04-17T11:12:02Z</time>
      </trkpt>
      <trkpt lat="43.451" lon="6.19728">
        <ele>173</ele>
        <time>2019-04-17T11:12:10Z</time>
      </trkpt>
      <trkpt lat="43.45107" lon="6.19738">
        <ele>173</ele>
        <time>2019-04-17T11:12:22Z</time>
      </trkpt>
      <trkpt lat="43.45114" lon="6.19748">
        <ele>174</ele>
        <time>2019-04-17T11:12:30Z</time>
      </trkpt>
      <trkpt lat="43.45121" lon="6.1977">
        <ele>174</ele>
        <time>2019-04-17T11:12:49Z</time>
      </trkpt>
      <trkpt lat="43.45129" lon="6.1979">
        <ele>174</ele>
        <time>2019-04-17T11:13:04Z</time>
      </trkpt>
      <trkpt lat="43.45138" lon="6.1982">
        <ele>173</ele>
        <time>2019-04-17T11:13:27Z</time>
      </trkpt>
      <trkpt lat="43.45138" lon="6.19853">
        <ele>174</ele>
        <time>2019-04-17T11:13:49Z</time>
      </trkpt>
      <trkpt lat="43.45144" lon="6.19905">
        <ele>175</ele>
        <time>2019-04-17T11:14:24Z</time>
      </trkpt>
      <trkpt lat="43.45147" lon="6.19923">
        <ele>175</ele>
        <time>2019-04-17T11:14:36Z</time>
      </trkpt>
      <trkpt lat="43.45152" lon="6.19942">
        <ele>174</ele>
        <time>2019-04-17T11:14:49Z</time>
      </trkpt>
      <trkpt lat="43.45151" lon="6.19957">
        <ele>175</ele>
        <time>2019-04-17T11:15:00Z</time>
      </trkpt>
      <trkpt lat="43.45151" lon="6.19974">
        <ele>176</ele>
        <time>2019-04-17T11:15:12Z</time>
      </trkpt>
      <trkpt lat="43.45149" lon="6.20005">
        <ele>178</ele>
        <time>2019-04-17T11:15:36Z</time>
      </trkpt>
      <trkpt lat="43.45153" lon="6.2006">
        <ele>175</ele>
        <time>2019-04-17T11:16:12Z</time>
      </trkpt>
      <trkpt lat="43.4515" lon="6.20075">
        <ele>177</ele>
        <time>2019-04-17T11:16:22Z</time>
      </trkpt>
      <trkpt lat="43.45151" lon="6.20089">
        <ele>177</ele>
        <time>2019-04-17T11:16:31Z</time>
      </trkpt>
      <trkpt lat="43.45143" lon="6.20097">
        <ele>177</ele>
        <time>2019-04-17T11:16:49Z</time>
      </trkpt>
      <trkpt lat="43.45141" lon="6.2013">
        <ele>178</ele>
        <time>2019-04-17T11:17:07Z</time>
      </trkpt>
      <trkpt lat="43.45139" lon="6.20143">
        <ele>178</ele>
        <time>2019-04-17T11:17:15Z</time>
      </trkpt>
      <trkpt lat="43.4514" lon="6.2019">
        <ele>179</ele>
        <time>2019-04-17T11:17:44Z</time>
      </trkpt>
      <trkpt lat="43.45134" lon="6.2022">
        <ele>180</ele>
        <time>2019-04-17T11:18:03Z</time>
      </trkpt>
      <trkpt lat="43.45132" lon="6.20249">
        <ele>181</ele>
        <time>2019-04-17T11:18:24Z</time>
      </trkpt>
      <trkpt lat="43.45129" lon="6.20265">
        <ele>177</ele>
        <time>2019-04-17T11:18:35Z</time>
      </trkpt>
      <trkpt lat="43.45124" lon="6.20277">
        <ele>176</ele>
        <time>2019-04-17T11:18:42Z</time>
      </trkpt>
      <trkpt lat="43.45114" lon="6.2033">
        <ele>176</ele>
        <time>2019-04-17T11:19:16Z</time>
      </trkpt>
      <trkpt lat="43.45107" lon="6.20356">
        <ele>177</ele>
        <time>2019-04-17T11:19:35Z</time>
      </trkpt>
      <trkpt lat="43.45106" lon="6.20369">
        <ele>177</ele>
        <time>2019-04-17T11:19:45Z</time>
      </trkpt>
      <trkpt lat="43.45109" lon="6.20382">
        <ele>176</ele>
        <time>2019-04-17T11:19:54Z</time>
      </trkpt>
      <trkpt lat="43.45111" lon="6.2039">
        <ele>175</ele>
        <time>2019-04-17T11:20:07Z</time>
      </trkpt>
      <trkpt lat="43.45117" lon="6.20397">
        <ele>178</ele>
        <time>2019-04-17T11:20:36Z</time>
      </trkpt>
      <trkpt lat="43.45119" lon="6.20406">
        <ele>178</ele>
        <time>2019-04-17T11:20:40Z</time>
      </trkpt>
      <trkpt lat="43.45125" lon="6.20413">
        <ele>174</ele>
        <time>2019-04-17T11:20:58Z</time>
      </trkpt>
      <trkpt lat="43.45132" lon="6.20424">
        <ele>173</ele>
        <time>2019-04-17T11:21:06Z</time>
      </trkpt>
      <trkpt lat="43.45142" lon="6.20448">
        <ele>175</ele>
        <time>2019-04-17T11:21:22Z</time>
      </trkpt>
      <trkpt lat="43.45148" lon="6.20458">
        <ele>175</ele>
        <time>2019-04-17T11:21:29Z</time>
      </trkpt>
      <trkpt lat="43.4517" lon="6.20496">
        <ele>175</ele>
        <time>2019-04-17T11:21:51Z</time>
      </trkpt>
      <trkpt lat="43.45176" lon="6.20509">
        <ele>173</ele>
        <time>2019-04-17T11:21:57Z</time>
      </trkpt>
      <trkpt lat="43.45183" lon="6.20518">
        <ele>173</ele>
        <time>2019-04-17T11:22:04Z</time>
      </trkpt>
      <trkpt lat="43.45192" lon="6.20537">
        <ele>174</ele>
        <time>2019-04-17T11:22:21Z</time>
      </trkpt>
      <trkpt lat="43.452" lon="6.20543">
        <ele>172</ele>
        <time>2019-04-17T11:24:05Z</time>
      </trkpt>
      <trkpt lat="43.45209" lon="6.20549">
        <ele>172</ele>
        <time>2019-04-17T11:24:14Z</time>
      </trkpt>
      <trkpt lat="43.45222" lon="6.20559">
        <ele>173</ele>
        <time>2019-04-17T11:24:28Z</time>
      </trkpt>
      <trkpt lat="43.45225" lon="6.20569">
        <ele>174</ele>
        <time>2019-04-17T11:24:37Z</time>
      </trkpt>
      <trkpt lat="43.45229" lon="6.20581">
        <ele>174</ele>
        <time>2019-04-17T11:24:45Z</time>
      </trkpt>
      <trkpt lat="43.45235" lon="6.20593">
        <ele>175</ele>
        <time>2019-04-17T11:24:55Z</time>
      </trkpt>
      <trkpt lat="43.45242" lon="6.20602">
        <ele>175</ele>
        <time>2019-04-17T11:25:04Z</time>
      </trkpt>
      <trkpt lat="43.45247" lon="6.20616">
        <ele>177</ele>
        <time>2019-04-17T11:25:14Z</time>
      </trkpt>
      <trkpt lat="43.45254" lon="6.20627">
        <ele>177</ele>
        <time>2019-04-17T11:25:22Z</time>
      </trkpt>
      <trkpt lat="43.45258" lon="6.20639">
        <ele>177</ele>
        <time>2019-04-17T11:25:30Z</time>
      </trkpt>
      <trkpt lat="43.4527" lon="6.20661">
        <ele>174</ele>
        <time>2019-04-17T11:25:46Z</time>
      </trkpt>
      <trkpt lat="43.45276" lon="6.20671">
        <ele>174</ele>
        <time>2019-04-17T11:25:54Z</time>
      </trkpt>
      <trkpt lat="43.45292" lon="6.20688">
        <ele>175</ele>
        <time>2019-04-17T11:26:12Z</time>
      </trkpt>
      <trkpt lat="43.45299" lon="6.20698">
        <ele>175</ele>
        <time>2019-04-17T11:26:23Z</time>
      </trkpt>
      <trkpt lat="43.45307" lon="6.20706">
        <ele>175</ele>
        <time>2019-04-17T11:26:32Z</time>
      </trkpt>
      <trkpt lat="43.45315" lon="6.20712">
        <ele>175</ele>
        <time>2019-04-17T11:26:39Z</time>
      </trkpt>
      <trkpt lat="43.45328" lon="6.20729">
        <ele>176</ele>
        <time>2019-04-17T11:27:00Z</time>
      </trkpt>
      <trkpt lat="43.45336" lon="6.20736">
        <ele>177</ele>
        <time>2019-04-17T11:27:08Z</time>
      </trkpt>
      <trkpt lat="43.45345" lon="6.20745">
        <ele>178</ele>
        <time>2019-04-17T11:27:20Z</time>
      </trkpt>
      <trkpt lat="43.45353" lon="6.20755">
        <ele>177</ele>
        <time>2019-04-17T11:27:27Z</time>
      </trkpt>
      <trkpt lat="43.45361" lon="6.20762">
        <ele>176</ele>
        <time>2019-04-17T11:27:35Z</time>
      </trkpt>
      <trkpt lat="43.45376" lon="6.20778">
        <ele>173</ele>
        <time>2019-04-17T11:27:51Z</time>
      </trkpt>
      <trkpt lat="43.45394" lon="6.20801">
        <ele>173</ele>
        <time>2019-04-17T11:28:11Z</time>
      </trkpt>
      <trkpt lat="43.45402" lon="6.20804">
        <ele>174</ele>
        <time>2019-04-17T11:28:20Z</time>
      </trkpt>
      <trkpt lat="43.45411" lon="6.20808">
        <ele>176</ele>
        <time>2019-04-17T11:28:28Z</time>
      </trkpt>
      <trkpt lat="43.45423" lon="6.20802">
        <ele>177</ele>
        <time>2019-04-17T11:29:46Z</time>
      </trkpt>
      <trkpt lat="43.45453" lon="6.20786">
        <ele>176</ele>
        <time>2019-04-17T11:30:18Z</time>
      </trkpt>
      <trkpt lat="43.4549" lon="6.2076">
        <ele>174</ele>
        <time>2019-04-17T11:30:50Z</time>
      </trkpt>
      <trkpt lat="43.45495" lon="6.20751">
        <ele>172</ele>
        <time>2019-04-17T11:30:56Z</time>
      </trkpt>
      <trkpt lat="43.45509" lon="6.20725">
        <ele>171</ele>
        <time>2019-04-17T11:31:15Z</time>
      </trkpt>
      <trkpt lat="43.45515" lon="6.20717">
        <ele>170</ele>
        <time>2019-04-17T11:31:22Z</time>
      </trkpt>
      <trkpt lat="43.45523" lon="6.20712">
        <ele>171</ele>
        <time>2019-04-17T11:31:29Z</time>
      </trkpt>
      <trkpt lat="43.4553" lon="6.20706">
        <ele>171</ele>
        <time>2019-04-17T11:31:34Z</time>
      </trkpt>
      <trkpt lat="43.45535" lon="6.20697">
        <ele>171</ele>
        <time>2019-04-17T11:31:43Z</time>
      </trkpt>
      <trkpt lat="43.45549" lon="6.20686">
        <ele>173</ele>
        <time>2019-04-17T11:32:00Z</time>
      </trkpt>
      <trkpt lat="43.45558" lon="6.20684">
        <ele>172</ele>
        <time>2019-04-17T11:32:06Z</time>
      </trkpt>
      <trkpt lat="43.45567" lon="6.20681">
        <ele>174</ele>
        <time>2019-04-17T11:32:13Z</time>
      </trkpt>
      <trkpt lat="43.45576" lon="6.20676">
        <ele>174</ele>
        <time>2019-04-17T11:32:21Z</time>
      </trkpt>
      <trkpt lat="43.45584" lon="6.20674">
        <ele>174</ele>
        <time>2019-04-17T11:32:36Z</time>
      </trkpt>
      <trkpt lat="43.45592" lon="6.20665">
        <ele>174</ele>
        <time>2019-04-17T11:32:46Z</time>
      </trkpt>
      <trkpt lat="43.45599" lon="6.20655">
        <ele>173</ele>
        <time>2019-04-17T11:32:52Z</time>
      </trkpt>
      <trkpt lat="43.45609" lon="6.20648">
        <ele>174</ele>
        <time>2019-04-17T11:33:00Z</time>
      </trkpt>
      <trkpt lat="43.45625" lon="6.2063">
        <ele>176</ele>
        <time>2019-04-17T11:33:19Z</time>
      </trkpt>
      <trkpt lat="43.45631" lon="6.20619">
        <ele>175</ele>
        <time>2019-04-17T11:33:26Z</time>
      </trkpt>
      <trkpt lat="43.45645" lon="6.20607">
        <ele>178</ele>
        <time>2019-04-17T11:33:42Z</time>
      </trkpt>
      <trkpt lat="43.45659" lon="6.20602">
        <ele>176</ele>
        <time>2019-04-17T11:33:59Z</time>
      </trkpt>
      <trkpt lat="43.45686" lon="6.20596">
        <ele>174</ele>
        <time>2019-04-17T11:34:21Z</time>
      </trkpt>
      <trkpt lat="43.45695" lon="6.20591">
        <ele>174</ele>
        <time>2019-04-17T11:34:28Z</time>
      </trkpt>
      <trkpt lat="43.45705" lon="6.20591">
        <ele>173</ele>
        <time>2019-04-17T11:34:41Z</time>
      </trkpt>
      <trkpt lat="43.45714" lon="6.20589">
        <ele>173</ele>
        <time>2019-04-17T11:34:51Z</time>
      </trkpt>
      <trkpt lat="43.45725" lon="6.20587">
        <ele>174</ele>
        <time>2019-04-17T11:34:59Z</time>
      </trkpt>
      <trkpt lat="43.45734" lon="6.20584">
        <ele>173</ele>
        <time>2019-04-17T11:35:08Z</time>
      </trkpt>
      <trkpt lat="43.45769" lon="6.20577">
        <ele>170</ele>
        <time>2019-04-17T11:35:46Z</time>
      </trkpt>
      <trkpt lat="43.45777" lon="6.20577">
        <ele>171</ele>
        <time>2019-04-17T11:37:22Z</time>
      </trkpt>
      <trkpt lat="43.45784" lon="6.20577">
        <ele>171</ele>
        <time>2019-04-17T11:37:31Z</time>
      </trkpt>
      <trkpt lat="43.45785" lon="6.20572">
        <ele>173</ele>
        <time>2019-04-17T11:38:40Z</time>
      </trkpt>
      <trkpt lat="43.4579" lon="6.20571">
        <ele>173</ele>
        <time>2019-04-17T11:39:57Z</time>
      </trkpt>
      <trkpt lat="43.45799" lon="6.20568">
        <ele>173</ele>
        <time>2019-04-17T11:40:13Z</time>
      </trkpt>
      <trkpt lat="43.45824" lon="6.20564">
        <ele>175</ele>
        <time>2019-04-17T11:40:42Z</time>
      </trkpt>
      <trkpt lat="43.45833" lon="6.20559">
        <ele>174</ele>
        <time>2019-04-17T11:40:53Z</time>
      </trkpt>
      <trkpt lat="43.45843" lon="6.20556">
        <ele>174</ele>
        <time>2019-04-17T11:41:02Z</time>
      </trkpt>
      <trkpt lat="43.45851" lon="6.20556">
        <ele>175</ele>
        <time>2019-04-17T11:41:09Z</time>
      </trkpt>
      <trkpt lat="43.45861" lon="6.20553">
        <ele>175</ele>
        <time>2019-04-17T11:41:19Z</time>
      </trkpt>
      <trkpt lat="43.45871" lon="6.20556">
        <ele>177</ele>
        <time>2019-04-17T11:41:31Z</time>
      </trkpt>
      <trkpt lat="43.45878" lon="6.20562">
        <ele>177</ele>
        <time>2019-04-17T11:41:38Z</time>
      </trkpt>
      <trkpt lat="43.45886" lon="6.20556">
        <ele>178</ele>
        <time>2019-04-17T11:42:08Z</time>
      </trkpt>
      <trkpt lat="43.45917" lon="6.20555">
        <ele>173</ele>
        <time>2019-04-17T11:42:39Z</time>
      </trkpt>
      <trkpt lat="43.45933" lon="6.20561">
        <ele>171</ele>
        <time>2019-04-17T11:42:54Z</time>
      </trkpt>
      <trkpt lat="43.45942" lon="6.20564">
        <ele>172</ele>
        <time>2019-04-17T11:43:01Z</time>
      </trkpt>
      <trkpt lat="43.45951" lon="6.20567">
        <ele>172</ele>
        <time>2019-04-17T11:43:09Z</time>
      </trkpt>
      <trkpt lat="43.45976" lon="6.20579">
        <ele>172</ele>
        <time>2019-04-17T11:43:31Z</time>
      </trkpt>
      <trkpt lat="43.45983" lon="6.20583">
        <ele>173</ele>
        <time>2019-04-17T11:43:37Z</time>
      </trkpt>
      <trkpt lat="43.46015" lon="6.20602">
        <ele>172</ele>
        <time>2019-04-17T11:44:07Z</time>
      </trkpt>
      <trkpt lat="43.46027" lon="6.20615">
        <ele>172</ele>
        <time>2019-04-17T11:44:20Z</time>
      </trkpt>
      <trkpt lat="43.46032" lon="6.20619">
        <ele>170</ele>
        <time>2019-04-17T11:44:28Z</time>
      </trkpt>
      <trkpt lat="43.46036" lon="6.20626">
        <ele>171</ele>
        <time>2019-04-17T11:44:38Z</time>
      </trkpt>
      <trkpt lat="43.46041" lon="6.20629">
        <ele>172</ele>
        <time>2019-04-17T11:44:45Z</time>
      </trkpt>
      <trkpt lat="43.46051" lon="6.20642">
        <ele>172</ele>
        <time>2019-04-17T11:45:12Z</time>
      </trkpt>
      <trkpt lat="43.46061" lon="6.20656">
        <ele>173</ele>
        <time>2019-04-17T11:45:26Z</time>
      </trkpt>
      <trkpt lat="43.46068" lon="6.20664">
        <ele>173</ele>
        <time>2019-04-17T11:45:38Z</time>
      </trkpt>
      <trkpt lat="43.46077" lon="6.2067">
        <ele>172</ele>
        <time>2019-04-17T11:45:46Z</time>
      </trkpt>
      <trkpt lat="43.46083" lon="6.20676">
        <ele>172</ele>
        <time>2019-04-17T11:45:54Z</time>
      </trkpt>
      <trkpt lat="43.46089" lon="6.20684">
        <ele>172</ele>
        <time>2019-04-17T11:46:01Z</time>
      </trkpt>
      <trkpt lat="43.46093" lon="6.20704">
        <ele>171</ele>
        <time>2019-04-17T11:46:14Z</time>
      </trkpt>
      <trkpt lat="43.46099" lon="6.20712">
        <ele>172</ele>
        <time>2019-04-17T11:46:21Z</time>
      </trkpt>
      <trkpt lat="43.46112" lon="6.20741">
        <ele>174</ele>
        <time>2019-04-17T11:46:45Z</time>
      </trkpt>
      <trkpt lat="43.46118" lon="6.20752">
        <ele>175</ele>
        <time>2019-04-17T11:46:54Z</time>
      </trkpt>
      <trkpt lat="43.46123" lon="6.20761">
        <ele>175</ele>
        <time>2019-04-17T11:47:02Z</time>
      </trkpt>
      <trkpt lat="43.46127" lon="6.20772">
        <ele>176</ele>
        <time>2019-04-17T11:47:08Z</time>
      </trkpt>
      <trkpt lat="43.46132" lon="6.20783">
        <ele>175</ele>
        <time>2019-04-17T11:47:17Z</time>
      </trkpt>
      <trkpt lat="43.46135" lon="6.20806">
        <ele>175</ele>
        <time>2019-04-17T11:47:33Z</time>
      </trkpt>
      <trkpt lat="43.46138" lon="6.20815">
        <ele>175</ele>
        <time>2019-04-17T11:47:41Z</time>
      </trkpt>
      <trkpt lat="43.46144" lon="6.20823">
        <ele>174</ele>
        <time>2019-04-17T11:47:48Z</time>
      </trkpt>
      <trkpt lat="43.46147" lon="6.20833">
        <ele>174</ele>
        <time>2019-04-17T11:47:55Z</time>
      </trkpt>
      <trkpt lat="43.46148" lon="6.20854">
        <ele>175</ele>
        <time>2019-04-17T11:48:09Z</time>
      </trkpt>
      <trkpt lat="43.46158" lon="6.20868">
        <ele>176</ele>
        <time>2019-04-17T11:48:23Z</time>
      </trkpt>
      <trkpt lat="43.46163" lon="6.20873">
        <ele>176</ele>
        <time>2019-04-17T11:48:35Z</time>
      </trkpt>
      <trkpt lat="43.46168" lon="6.20877">
        <ele>174</ele>
        <time>2019-04-17T11:48:54Z</time>
      </trkpt>
      <trkpt lat="43.46174" lon="6.20879">
        <ele>173</ele>
        <time>2019-04-17T11:49:01Z</time>
      </trkpt>
      <trkpt lat="43.4618" lon="6.20876">
        <ele>174</ele>
        <time>2019-04-17T11:49:10Z</time>
      </trkpt>
      <trkpt lat="43.46187" lon="6.20881">
        <ele>173</ele>
        <time>2019-04-17T11:51:27Z</time>
      </trkpt>
      <trkpt lat="43.46209" lon="6.20892">
        <ele>174</ele>
        <time>2019-04-17T11:51:48Z</time>
      </trkpt>
      <trkpt lat="43.46219" lon="6.20902">
        <ele>172</ele>
        <time>2019-04-17T11:52:03Z</time>
      </trkpt>
      <trkpt lat="43.46223" lon="6.20905">
        <ele>172</ele>
        <time>2019-04-17T11:52:09Z</time>
      </trkpt>
      <trkpt lat="43.46226" lon="6.20899">
        <ele>170</ele>
        <time>2019-04-17T11:52:40Z</time>
      </trkpt>
      <trkpt lat="43.46228" lon="6.20891">
        <ele>171</ele>
        <time>2019-04-17T11:52:48Z</time>
      </trkpt>
      <trkpt lat="43.46244" lon="6.20894">
        <ele>174</ele>
        <time>2019-04-17T11:53:19Z</time>
      </trkpt>
      <trkpt lat="43.46276" lon="6.20897">
        <ele>172</ele>
        <time>2019-04-17T11:53:54Z</time>
      </trkpt>
      <trkpt lat="43.46281" lon="6.20896">
        <ele>172</ele>
        <time>2019-04-17T11:54:18Z</time>
      </trkpt>
      <trkpt lat="43.46296" lon="6.20897">
        <ele>172</ele>
        <time>2019-04-17T11:54:36Z</time>
      </trkpt>
      <trkpt lat="43.46302" lon="6.20897">
        <ele>173</ele>
        <time>2019-04-17T11:54:57Z</time>
      </trkpt>
      <trkpt lat="43.46308" lon="6.20897">
        <ele>173</ele>
        <time>2019-04-17T11:55:05Z</time>
      </trkpt>
      <trkpt lat="43.46314" lon="6.20898">
        <ele>174</ele>
        <time>2019-04-17T11:55:15Z</time>
      </trkpt>
      <trkpt lat="43.46326" lon="6.20897">
        <ele>174</ele>
        <time>2019-04-17T11:55:26Z</time>
      </trkpt>
      <trkpt lat="43.46336" lon="6.20902">
        <ele>175</ele>
        <time>2019-04-17T11:55:37Z</time>
      </trkpt>
      <trkpt lat="43.46342" lon="6.20905">
        <ele>175</ele>
        <time>2019-04-17T11:55:43Z</time>
      </trkpt>
      <trkpt lat="43.46356" lon="6.20908">
        <ele>176</ele>
        <time>2019-04-17T11:56:17Z</time>
      </trkpt>
      <trkpt lat="43.46362" lon="6.20908">
        <ele>176</ele>
        <time>2019-04-17T11:56:24Z</time>
      </trkpt>
      <trkpt lat="43.46367" lon="6.2091">
        <ele>176</ele>
        <time>2019-04-17T11:56:28Z</time>
      </trkpt>
      <trkpt lat="43.46373" lon="6.20912">
        <ele>176</ele>
        <time>2019-04-17T11:56:34Z</time>
      </trkpt>
      <trkpt lat="43.4638" lon="6.2091">
        <ele>175</ele>
        <time>2019-04-17T11:56:40Z</time>
      </trkpt>
      <trkpt lat="43.46384" lon="6.20904">
        <ele>174</ele>
        <time>2019-04-17T11:56:45Z</time>
      </trkpt>
      <trkpt lat="43.46395" lon="6.20895">
        <ele>172</ele>
        <time>2019-04-17T11:56:55Z</time>
      </trkpt>
      <trkpt lat="43.46407" lon="6.20888">
        <ele>172</ele>
        <time>2019-04-17T11:57:05Z</time>
      </trkpt>
      <trkpt lat="43.4642" lon="6.2088">
        <ele>174</ele>
        <time>2019-04-17T11:57:19Z</time>
      </trkpt>
      <trkpt lat="43.46432" lon="6.20873">
        <ele>175</ele>
        <time>2019-04-17T11:57:29Z</time>
      </trkpt>
      <trkpt lat="43.4645" lon="6.20855">
        <ele>175</ele>
        <time>2019-04-17T11:57:45Z</time>
      </trkpt>
      <trkpt lat="43.46455" lon="6.20845">
        <ele>175</ele>
        <time>2019-04-17T11:57:51Z</time>
      </trkpt>
      <trkpt lat="43.46462" lon="6.20824">
        <ele>175</ele>
        <time>2019-04-17T11:58:06Z</time>
      </trkpt>
      <trkpt lat="43.46481" lon="6.20786">
        <ele>174</ele>
        <time>2019-04-17T11:58:32Z</time>
      </trkpt>
      <trkpt lat="43.46496" lon="6.20741">
        <ele>174</ele>
        <time>2019-04-17T11:58:57Z</time>
      </trkpt>
      <trkpt lat="43.46502" lon="6.20733">
        <ele>174</ele>
        <time>2019-04-17T11:59:05Z</time>
      </trkpt>
      <trkpt lat="43.4651" lon="6.2073">
        <ele>175</ele>
        <time>2019-04-17T11:59:15Z</time>
      </trkpt>
      <trkpt lat="43.46517" lon="6.2073">
        <ele>175</ele>
        <time>2019-04-17T11:59:22Z</time>
      </trkpt>
      <trkpt lat="43.46522" lon="6.20725">
        <ele>172</ele>
        <time>2019-04-17T11:59:40Z</time>
      </trkpt>
      <trkpt lat="43.46536" lon="6.20726">
        <ele>170</ele>
        <time>2019-04-17T12:00:02Z</time>
      </trkpt>
      <trkpt lat="43.46544" lon="6.20725">
        <ele>172</ele>
        <time>2019-04-17T12:00:15Z</time>
      </trkpt>
      <trkpt lat="43.46553" lon="6.20723">
        <ele>174</ele>
        <time>2019-04-17T12:00:22Z</time>
      </trkpt>
      <trkpt lat="43.4656" lon="6.20718">
        <ele>174</ele>
        <time>2019-04-17T12:00:28Z</time>
      </trkpt>
      <trkpt lat="43.46567" lon="6.20716">
        <ele>174</ele>
        <time>2019-04-17T12:00:34Z</time>
      </trkpt>
      <trkpt lat="43.46575" lon="6.20708">
        <ele>175</ele>
        <time>2019-04-17T12:00:43Z</time>
      </trkpt>
      <trkpt lat="43.46582" lon="6.20702">
        <ele>174</ele>
        <time>2019-04-17T12:00:52Z</time>
      </trkpt>
      <trkpt lat="43.46588" lon="6.20695">
        <ele>173</ele>
        <time>2019-04-17T12:00:58Z</time>
      </trkpt>
      <trkpt lat="43.466" lon="6.20686">
        <ele>173</ele>
        <time>2019-04-17T12:01:11Z</time>
      </trkpt>
      <trkpt lat="43.46614" lon="6.20682">
        <ele>171</ele>
        <time>2019-04-17T12:01:25Z</time>
      </trkpt>
      <trkpt lat="43.46613" lon="6.20688">
        <ele>170</ele>
        <time>2019-04-17T12:01:43Z</time>
      </trkpt>
      <trkpt lat="43.46611" lon="6.20693">
        <ele>169</ele>
        <time>2019-04-17T12:01:47Z</time>
      </trkpt>
      <trkpt lat="43.46609" lon="6.207">
        <ele>167</ele>
        <time>2019-04-17T12:01:54Z</time>
      </trkpt>
      <trkpt lat="43.46613" lon="6.20705">
        <ele>166</ele>
        <time>2019-04-17T12:02:00Z</time>
      </trkpt>
      <trkpt lat="43.46616" lon="6.20711">
        <ele>165</ele>
        <time>2019-04-17T12:02:06Z</time>
      </trkpt>
      <trkpt lat="43.46614" lon="6.20719">
        <ele>162</ele>
        <time>2019-04-17T12:02:18Z</time>
      </trkpt>
      <trkpt lat="43.46599" lon="6.20739">
        <ele>163</ele>
        <time>2019-04-17T12:02:39Z</time>
      </trkpt>
      <trkpt lat="43.46593" lon="6.20744">
        <ele>163</ele>
        <time>2019-04-17T12:02:44Z</time>
      </trkpt>
      <trkpt lat="43.46587" lon="6.2076">
        <ele>164</ele>
        <time>2019-04-17T12:02:58Z</time>
      </trkpt>
      <trkpt lat="43.46589" lon="6.20774">
        <ele>162</ele>
        <time>2019-04-17T12:03:20Z</time>
      </trkpt>
      <trkpt lat="43.46596" lon="6.20774">
        <ele>161</ele>
        <time>2019-04-17T12:03:47Z</time>
      </trkpt>
      <trkpt lat="43.46601" lon="6.20771">
        <ele>159</ele>
        <time>2019-04-17T12:03:52Z</time>
      </trkpt>
      <trkpt lat="43.46605" lon="6.20767">
        <ele>159</ele>
        <time>2019-04-17T12:03:56Z</time>
      </trkpt>
      <trkpt lat="43.46608" lon="6.20764">
        <ele>158</ele>
        <time>2019-04-17T12:04:02Z</time>
      </trkpt>
      <trkpt lat="43.46612" lon="6.20765">
        <ele>157</ele>
        <time>2019-04-17T12:04:16Z</time>
      </trkpt>
      <trkpt lat="43.46616" lon="6.20764">
        <ele>157</ele>
        <time>2019-04-17T12:04:20Z</time>
      </trkpt>
      <trkpt lat="43.4662" lon="6.20764">
        <ele>156</ele>
        <time>2019-04-17T12:04:24Z</time>
      </trkpt>
      <trkpt lat="43.46642" lon="6.20765">
        <ele>157</ele>
        <time>2019-04-17T12:04:42Z</time>
      </trkpt>
      <trkpt lat="43.46659" lon="6.20763">
        <ele>158</ele>
        <time>2019-04-17T12:05:01Z</time>
      </trkpt>
      <trkpt lat="43.46661" lon="6.20757">
        <ele>158</ele>
        <time>2019-04-17T12:05:07Z</time>
      </trkpt>
      <trkpt lat="43.46665" lon="6.20742">
        <ele>158</ele>
        <time>2019-04-17T12:06:09Z</time>
      </trkpt>
      <trkpt lat="43.46669" lon="6.20736">
        <ele>157</ele>
        <time>2019-04-17T12:06:20Z</time>
      </trkpt>
      <trkpt lat="43.46671" lon="6.2073">
        <ele>156</ele>
        <time>2019-04-17T12:06:26Z</time>
      </trkpt>
      <trkpt lat="43.46673" lon="6.20725">
        <ele>155</ele>
        <time>2019-04-17T12:07:28Z</time>
      </trkpt>
      <trkpt lat="43.46675" lon="6.20717">
        <ele>155</ele>
        <time>2019-04-17T12:07:40Z</time>
      </trkpt>
      <trkpt lat="43.46679" lon="6.2071">
        <ele>157</ele>
        <time>2019-04-17T12:07:50Z</time>
      </trkpt>
      <trkpt lat="43.46688" lon="6.20715">
        <ele>157</ele>
        <time>2019-04-17T12:09:01Z</time>
      </trkpt>
      <trkpt lat="43.46695" lon="6.20718">
        <ele>158</ele>
        <time>2019-04-17T12:09:15Z</time>
      </trkpt>
      <trkpt lat="43.46702" lon="6.20713">
        <ele>159</ele>
        <time>2019-04-17T12:09:24Z</time>
      </trkpt>
      <trkpt lat="43.46699" lon="6.20706">
        <ele>155</ele>
        <time>2019-04-17T12:09:30Z</time>
      </trkpt>
      <trkpt lat="43.46707" lon="6.20706">
        <ele>153</ele>
        <time>2019-04-17T12:09:45Z</time>
      </trkpt>
      <trkpt lat="43.4671" lon="6.20698">
        <ele>154</ele>
        <time>2019-04-17T12:09:57Z</time>
      </trkpt>
      <trkpt lat="43.46706" lon="6.207">
        <ele>156</ele>
        <time>2019-04-17T12:11:13Z</time>
      </trkpt>
      <trkpt lat="43.46703" lon="6.20703">
        <ele>155</ele>
        <time>2019-04-17T12:11:18Z</time>
      </trkpt>
      <trkpt lat="43.467" lon="6.20707">
        <ele>153</ele>
        <time>2019-04-17T12:11:35Z</time>
      </trkpt>
      <trkpt lat="43.46685" lon="6.20705">
        <ele>151</ele>
        <time>2019-04-17T12:12:08Z</time>
      </trkpt>
      <trkpt lat="43.46679" lon="6.20698">
        <ele>153</ele>
        <time>2019-04-17T12:12:21Z</time>
      </trkpt>
      <trkpt lat="43.46675" lon="6.20679">
        <ele>154</ele>
        <time>2019-04-17T12:12:33Z</time>
      </trkpt>
      <trkpt lat="43.46678" lon="6.2067">
        <ele>154</ele>
        <time>2019-04-17T12:12:41Z</time>
      </trkpt>
      <trkpt lat="43.46683" lon="6.20655">
        <ele>154</ele>
        <time>2019-04-17T12:12:59Z</time>
      </trkpt>
      <trkpt lat="43.46703" lon="6.20633">
        <ele>153</ele>
        <time>2019-04-17T12:13:30Z</time>
      </trkpt>
      <trkpt lat="43.46708" lon="6.20636">
        <ele>153</ele>
        <time>2019-04-17T12:13:45Z</time>
      </trkpt>
      <trkpt lat="43.46712" lon="6.20633">
        <ele>154</ele>
        <time>2019-04-17T12:14:18Z</time>
      </trkpt>
      <trkpt lat="43.4672" lon="6.20624">
        <ele>154</ele>
        <time>2019-04-17T12:14:27Z</time>
      </trkpt>
      <trkpt lat="43.46723" lon="6.20619">
        <ele>154</ele>
        <time>2019-04-17T12:14:35Z</time>
      </trkpt>
      <trkpt lat="43.46726" lon="6.20612">
        <ele>155</ele>
        <time>2019-04-17T12:15:00Z</time>
      </trkpt>
      <trkpt lat="43.46729" lon="6.20618">
        <ele>152</ele>
        <time>2019-04-17T12:15:11Z</time>
      </trkpt>
      <trkpt lat="43.46725" lon="6.20621">
        <ele>151</ele>
        <time>2019-04-17T12:15:57Z</time>
      </trkpt>
      <trkpt lat="43.46728" lon="6.20612">
        <ele>152</ele>
        <time>2019-04-17T12:17:08Z</time>
      </trkpt>
      <trkpt lat="43.46735" lon="6.20609">
        <ele>149</ele>
        <time>2019-04-17T12:17:22Z</time>
      </trkpt>
      <trkpt lat="43.46741" lon="6.20601">
        <ele>151</ele>
        <time>2019-04-17T12:17:53Z</time>
      </trkpt>
      <trkpt lat="43.4675" lon="6.20583">
        <ele>153</ele>
        <time>2019-04-17T12:18:07Z</time>
      </trkpt>
      <trkpt lat="43.46753" lon="6.20571">
        <ele>155</ele>
        <time>2019-04-17T12:18:16Z</time>
      </trkpt>
      <trkpt lat="43.46756" lon="6.20561">
        <ele>155</ele>
        <time>2019-04-17T12:18:24Z</time>
      </trkpt>
      <trkpt lat="43.46763" lon="6.20552">
        <ele>154</ele>
        <time>2019-04-17T12:18:33Z</time>
      </trkpt>
      <trkpt lat="43.46769" lon="6.2054">
        <ele>154</ele>
        <time>2019-04-17T12:18:41Z</time>
      </trkpt>
      <trkpt lat="43.46776" lon="6.20529">
        <ele>155</ele>
        <time>2019-04-17T12:18:49Z</time>
      </trkpt>
      <trkpt lat="43.46776" lon="6.20516">
        <ele>155</ele>
        <time>2019-04-17T12:18:58Z</time>
      </trkpt>
      <trkpt lat="43.46777" lon="6.20503">
        <ele>156</ele>
        <time>2019-04-17T12:19:08Z</time>
      </trkpt>
      <trkpt lat="43.46784" lon="6.20483">
        <ele>157</ele>
        <time>2019-04-17T12:19:25Z</time>
      </trkpt>
      <trkpt lat="43.46789" lon="6.20471">
        <ele>158</ele>
        <time>2019-04-17T12:19:36Z</time>
      </trkpt>
      <trkpt lat="43.4679" lon="6.20462">
        <ele>156</ele>
        <time>2019-04-17T12:19:43Z</time>
      </trkpt>
      <trkpt lat="43.46784" lon="6.20442">
        <ele>157</ele>
        <time>2019-04-17T12:20:04Z</time>
      </trkpt>
      <trkpt lat="43.46779" lon="6.20436">
        <ele>156</ele>
        <time>2019-04-17T12:20:11Z</time>
      </trkpt>
      <trkpt lat="43.46772" lon="6.20431">
        <ele>157</ele>
        <time>2019-04-17T12:20:19Z</time>
      </trkpt>
      <trkpt lat="43.4677" lon="6.20423">
        <ele>158</ele>
        <time>2019-04-17T12:20:30Z</time>
      </trkpt>
      <trkpt lat="43.46768" lon="6.20413">
        <ele>159</ele>
        <time>2019-04-17T12:20:38Z</time>
      </trkpt>
      <trkpt lat="43.46771" lon="6.20402">
        <ele>159</ele>
        <time>2019-04-17T12:20:45Z</time>
      </trkpt>
      <trkpt lat="43.46768" lon="6.20381">
        <ele>157</ele>
        <time>2019-04-17T12:21:05Z</time>
      </trkpt>
      <trkpt lat="43.46763" lon="6.20375">
        <ele>154</ele>
        <time>2019-04-17T12:21:20Z</time>
      </trkpt>
      <trkpt lat="43.46762" lon="6.20366">
        <ele>153</ele>
        <time>2019-04-17T12:21:27Z</time>
      </trkpt>
      <trkpt lat="43.46757" lon="6.20348">
        <ele>154</ele>
        <time>2019-04-17T12:21:39Z</time>
      </trkpt>
      <trkpt lat="43.46754" lon="6.20337">
        <ele>154</ele>
        <time>2019-04-17T12:21:47Z</time>
      </trkpt>
      <trkpt lat="43.46749" lon="6.20315">
        <ele>155</ele>
        <time>2019-04-17T12:22:03Z</time>
      </trkpt>
      <trkpt lat="43.46746" lon="6.20306">
        <ele>155</ele>
        <time>2019-04-17T12:22:09Z</time>
      </trkpt>
      <trkpt lat="43.46718" lon="6.20266">
        <ele>156</ele>
        <time>2019-04-17T12:22:45Z</time>
      </trkpt>
      <trkpt lat="43.46714" lon="6.20258">
        <ele>155</ele>
        <time>2019-04-17T12:22:56Z</time>
      </trkpt>
      <trkpt lat="43.46714" lon="6.20249">
        <ele>155</ele>
        <time>2019-04-17T12:23:03Z</time>
      </trkpt>
      <trkpt lat="43.46712" lon="6.20227">
        <ele>154</ele>
        <time>2019-04-17T12:23:19Z</time>
      </trkpt>
      <trkpt lat="43.46715" lon="6.20219">
        <ele>154</ele>
        <time>2019-04-17T12:23:26Z</time>
      </trkpt>
      <trkpt lat="43.46729" lon="6.20195">
        <ele>154</ele>
        <time>2019-04-17T12:23:54Z</time>
      </trkpt>
      <trkpt lat="43.46734" lon="6.20181">
        <ele>155</ele>
        <time>2019-04-17T12:24:04Z</time>
      </trkpt>
      <trkpt lat="43.46738" lon="6.20176">
        <ele>155</ele>
        <time>2019-04-17T12:24:09Z</time>
      </trkpt>
      <trkpt lat="43.46739" lon="6.2016">
        <ele>155</ele>
        <time>2019-04-17T12:24:35Z</time>
      </trkpt>
      <trkpt lat="43.46738" lon="6.2015">
        <ele>154</ele>
        <time>2019-04-17T12:24:42Z</time>
      </trkpt>
      <trkpt lat="43.46737" lon="6.2014">
        <ele>154</ele>
        <time>2019-04-17T12:24:48Z</time>
      </trkpt>
      <trkpt lat="43.46732" lon="6.20132">
        <ele>155</ele>
        <time>2019-04-17T12:24:57Z</time>
      </trkpt>
      <trkpt lat="43.46726" lon="6.20128">
        <ele>156</ele>
        <time>2019-04-17T12:25:05Z</time>
      </trkpt>
      <trkpt lat="43.46717" lon="6.20129">
        <ele>154</ele>
        <time>2019-04-17T12:25:28Z</time>
      </trkpt>
      <trkpt lat="43.46712" lon="6.20126">
        <ele>154</ele>
        <time>2019-04-17T12:25:37Z</time>
      </trkpt>
      <trkpt lat="43.46707" lon="6.2013">
        <ele>155</ele>
        <time>2019-04-17T12:25:42Z</time>
      </trkpt>
      <trkpt lat="43.46687" lon="6.20133">
        <ele>157</ele>
        <time>2019-04-17T12:26:02Z</time>
      </trkpt>
      <trkpt lat="43.46662" lon="6.20122">
        <ele>157</ele>
        <time>2019-04-17T12:26:22Z</time>
      </trkpt>
      <trkpt lat="43.46658" lon="6.20118">
        <ele>157</ele>
        <time>2019-04-17T12:26:27Z</time>
      </trkpt>
      <trkpt lat="43.4665" lon="6.20078">
        <ele>158</ele>
        <time>2019-04-17T12:26:59Z</time>
      </trkpt>
      <trkpt lat="43.46642" lon="6.20067">
        <ele>158</ele>
        <time>2019-04-17T12:27:09Z</time>
      </trkpt>
      <trkpt lat="43.46616" lon="6.20056">
        <ele>158</ele>
        <time>2019-04-17T12:27:34Z</time>
      </trkpt>
      <trkpt lat="43.46612" lon="6.20054">
        <ele>158</ele>
        <time>2019-04-17T12:27:39Z</time>
      </trkpt>
      <trkpt lat="43.46605" lon="6.20053">
        <ele>158</ele>
        <time>2019-04-17T12:28:46Z</time>
      </trkpt>
      <trkpt lat="43.46597" lon="6.20051">
        <ele>159</ele>
        <time>2019-04-17T12:28:59Z</time>
      </trkpt>
      <trkpt lat="43.46576" lon="6.20036">
        <ele>160</ele>
        <time>2019-04-17T12:29:21Z</time>
      </trkpt>
      <trkpt lat="43.4657" lon="6.2003">
        <ele>159</ele>
        <time>2019-04-17T12:29:31Z</time>
      </trkpt>
      <trkpt lat="43.46562" lon="6.2003">
        <ele>157</ele>
        <time>2019-04-17T12:29:39Z</time>
      </trkpt>
      <trkpt lat="43.46549" lon="6.20015">
        <ele>156</ele>
        <time>2019-04-17T12:29:55Z</time>
      </trkpt>
      <trkpt lat="43.46546" lon="6.20007">
        <ele>155</ele>
        <time>2019-04-17T12:30:01Z</time>
      </trkpt>
      <trkpt lat="43.46542" lon="6.19997">
        <ele>156</ele>
        <time>2019-04-17T12:30:09Z</time>
      </trkpt>
      <trkpt lat="43.46537" lon="6.19973">
        <ele>157</ele>
        <time>2019-04-17T12:30:27Z</time>
      </trkpt>
      <trkpt lat="43.46531" lon="6.19967">
        <ele>157</ele>
        <time>2019-04-17T12:30:34Z</time>
      </trkpt>
      <trkpt lat="43.4652" lon="6.19954">
        <ele>156</ele>
        <time>2019-04-17T12:30:48Z</time>
      </trkpt>
      <trkpt lat="43.46518" lon="6.19943">
        <ele>156</ele>
        <time>2019-04-17T12:30:55Z</time>
      </trkpt>
      <trkpt lat="43.46515" lon="6.19933">
        <ele>155</ele>
        <time>2019-04-17T12:31:01Z</time>
      </trkpt>
      <trkpt lat="43.4651" lon="6.19924">
        <ele>155</ele>
        <time>2019-04-17T12:31:08Z</time>
      </trkpt>
      <trkpt lat="43.46504" lon="6.19917">
        <ele>155</ele>
        <time>2019-04-17T12:31:14Z</time>
      </trkpt>
      <trkpt lat="43.46501" lon="6.19907">
        <ele>155</ele>
        <time>2019-04-17T12:31:21Z</time>
      </trkpt>
      <trkpt lat="43.46494" lon="6.19901">
        <ele>154</ele>
        <time>2019-04-17T12:31:27Z</time>
      </trkpt>
      <trkpt lat="43.46487" lon="6.19895">
        <ele>153</ele>
        <time>2019-04-17T12:31:37Z</time>
      </trkpt>
      <trkpt lat="43.46481" lon="6.19888">
        <ele>154</ele>
        <time>2019-04-17T12:31:44Z</time>
      </trkpt>
      <trkpt lat="43.46471" lon="6.1985">
        <ele>156</ele>
        <time>2019-04-17T12:32:11Z</time>
      </trkpt>
      <trkpt lat="43.4647" lon="6.19839">
        <ele>155</ele>
        <time>2019-04-17T12:32:17Z</time>
      </trkpt>
      <trkpt lat="43.46459" lon="6.19822">
        <ele>156</ele>
        <time>2019-04-17T12:32:31Z</time>
      </trkpt>
      <trkpt lat="43.46452" lon="6.19802">
        <ele>155</ele>
        <time>2019-04-17T12:32:45Z</time>
      </trkpt>
      <trkpt lat="43.46452" lon="6.1979">
        <ele>156</ele>
        <time>2019-04-17T12:32:52Z</time>
      </trkpt>
      <trkpt lat="43.46447" lon="6.1978">
        <ele>155</ele>
        <time>2019-04-17T12:32:59Z</time>
      </trkpt>
      <trkpt lat="43.46442" lon="6.19773">
        <ele>154</ele>
        <time>2019-04-17T12:33:05Z</time>
      </trkpt>
      <trkpt lat="43.46437" lon="6.19764">
        <ele>153</ele>
        <time>2019-04-17T12:33:13Z</time>
      </trkpt>
      <trkpt lat="43.46433" lon="6.19755">
        <ele>154</ele>
        <time>2019-04-17T12:33:19Z</time>
      </trkpt>
      <trkpt lat="43.46426" lon="6.19736">
        <ele>155</ele>
        <time>2019-04-17T12:33:33Z</time>
      </trkpt>
      <trkpt lat="43.46421" lon="6.19728">
        <ele>155</ele>
        <time>2019-04-17T12:33:39Z</time>
      </trkpt>
      <trkpt lat="43.4642" lon="6.19716">
        <ele>156</ele>
        <time>2019-04-17T12:33:47Z</time>
      </trkpt>
      <trkpt lat="43.4642" lon="6.19706">
        <ele>155</ele>
        <time>2019-04-17T12:33:53Z</time>
      </trkpt>
      <trkpt lat="43.46414" lon="6.19686">
        <ele>155</ele>
        <time>2019-04-17T12:34:07Z</time>
      </trkpt>
      <trkpt lat="43.46413" lon="6.19676">
        <ele>155</ele>
        <time>2019-04-17T12:34:14Z</time>
      </trkpt>
      <trkpt lat="43.46409" lon="6.19667">
        <ele>156</ele>
        <time>2019-04-17T12:34:20Z</time>
      </trkpt>
      <trkpt lat="43.46405" lon="6.19648">
        <ele>155</ele>
        <time>2019-04-17T12:34:59Z</time>
      </trkpt>
      <trkpt lat="43.46404" lon="6.1964">
        <ele>153</ele>
        <time>2019-04-17T12:36:03Z</time>
      </trkpt>
      <trkpt lat="43.46406" lon="6.19632">
        <ele>153</ele>
        <time>2019-04-17T12:36:09Z</time>
      </trkpt>
      <trkpt lat="43.46406" lon="6.19622">
        <ele>153</ele>
        <time>2019-04-17T12:36:16Z</time>
      </trkpt>
      <trkpt lat="43.46408" lon="6.19612">
        <ele>153</ele>
        <time>2019-04-17T12:36:25Z</time>
      </trkpt>
      <trkpt lat="43.46407" lon="6.19602">
        <ele>152</ele>
        <time>2019-04-17T12:37:38Z</time>
      </trkpt>
      <trkpt lat="43.46408" lon="6.19594">
        <ele>153</ele>
        <time>2019-04-17T12:37:43Z</time>
      </trkpt>
      <trkpt lat="43.46405" lon="6.19575">
        <ele>153</ele>
        <time>2019-04-17T12:37:56Z</time>
      </trkpt>
      <trkpt lat="43.46403" lon="6.19567">
        <ele>153</ele>
        <time>2019-04-17T12:38:02Z</time>
      </trkpt>
      <trkpt lat="43.46405" lon="6.19559">
        <ele>152</ele>
        <time>2019-04-17T12:38:12Z</time>
      </trkpt>
      <trkpt lat="43.46405" lon="6.19547">
        <ele>152</ele>
        <time>2019-04-17T12:38:22Z</time>
      </trkpt>
      <trkpt lat="43.46409" lon="6.19527">
        <ele>153</ele>
        <time>2019-04-17T12:38:39Z</time>
      </trkpt>
      <trkpt lat="43.46408" lon="6.19506">
        <ele>153</ele>
        <time>2019-04-17T12:38:52Z</time>
      </trkpt>
      <trkpt lat="43.46405" lon="6.19489">
        <ele>153</ele>
        <time>2019-04-17T12:39:03Z</time>
      </trkpt>
      <trkpt lat="43.46404" lon="6.19462">
        <ele>154</ele>
        <time>2019-04-17T12:39:23Z</time>
      </trkpt>
      <trkpt lat="43.46402" lon="6.19454">
        <ele>154</ele>
        <time>2019-04-17T12:39:29Z</time>
      </trkpt>
      <trkpt lat="43.46403" lon="6.19444">
        <ele>154</ele>
        <time>2019-04-17T12:39:36Z</time>
      </trkpt>
      <trkpt lat="43.46402" lon="6.19435">
        <ele>155</ele>
        <time>2019-04-17T12:39:43Z</time>
      </trkpt>
      <trkpt lat="43.46401" lon="6.19425">
        <ele>156</ele>
        <time>2019-04-17T12:39:49Z</time>
      </trkpt>
      <trkpt lat="43.46394" lon="6.19409">
        <ele>155</ele>
        <time>2019-04-17T12:40:00Z</time>
      </trkpt>
      <trkpt lat="43.46385" lon="6.19377">
        <ele>153</ele>
        <time>2019-04-17T12:40:24Z</time>
      </trkpt>
      <trkpt lat="43.46382" lon="6.1937">
        <ele>152</ele>
        <time>2019-04-17T12:40:30Z</time>
      </trkpt>
      <trkpt lat="43.4638" lon="6.19363">
        <ele>153</ele>
        <time>2019-04-17T12:40:36Z</time>
      </trkpt>
      <trkpt lat="43.46375" lon="6.19358">
        <ele>153</ele>
        <time>2019-04-17T12:40:43Z</time>
      </trkpt>
      <trkpt lat="43.46369" lon="6.19363">
        <ele>153</ele>
        <time>2019-04-17T12:40:50Z</time>
      </trkpt>
      <trkpt lat="43.46365" lon="6.19369">
        <ele>152</ele>
        <time>2019-04-17T12:40:56Z</time>
      </trkpt>
      <trkpt lat="43.46347" lon="6.19383">
        <ele>153</ele>
        <time>2019-04-17T12:41:21Z</time>
      </trkpt>
      <trkpt lat="43.46341" lon="6.19385">
        <ele>154</ele>
        <time>2019-04-17T12:41:27Z</time>
      </trkpt>
      <trkpt lat="43.46346" lon="6.19383">
        <ele>157</ele>
        <time>2019-04-17T12:42:11Z</time>
      </trkpt>
      <trkpt lat="43.46351" lon="6.19377">
        <ele>156</ele>
        <time>2019-04-17T12:42:27Z</time>
      </trkpt>
      <trkpt lat="43.46357" lon="6.19371">
        <ele>156</ele>
        <time>2019-04-17T12:42:35Z</time>
      </trkpt>
      <trkpt lat="43.46361" lon="6.19363">
        <ele>155</ele>
        <time>2019-04-17T12:42:44Z</time>
      </trkpt>
      <trkpt lat="43.46369" lon="6.19346">
        <ele>153</ele>
        <time>2019-04-17T12:43:10Z</time>
      </trkpt>
      <trkpt lat="43.46373" lon="6.19337">
        <ele>152</ele>
        <time>2019-04-17T12:43:20Z</time>
      </trkpt>
      <trkpt lat="43.46381" lon="6.19334">
        <ele>150</ele>
        <time>2019-04-17T12:43:31Z</time>
      </trkpt>
      <trkpt lat="43.46393" lon="6.19348">
        <ele>147</ele>
        <time>2019-04-17T12:43:56Z</time>
      </trkpt>
      <trkpt lat="43.464" lon="6.1935">
        <ele>146</ele>
        <time>2019-04-17T12:44:02Z</time>
      </trkpt>
      <trkpt lat="43.46411" lon="6.19346">
        <ele>145</ele>
        <time>2019-04-17T12:44:43Z</time>
      </trkpt>
      <trkpt lat="43.4642" lon="6.19345">
        <ele>146</ele>
        <time>2019-04-17T12:47:38Z</time>
      </trkpt>
      <trkpt lat="43.46429" lon="6.19343">
        <ele>144</ele>
        <time>2019-04-17T12:47:46Z</time>
      </trkpt>
      <trkpt lat="43.46436" lon="6.19339">
        <ele>143</ele>
        <time>2019-04-17T12:47:52Z</time>
      </trkpt>
      <trkpt lat="43.46442" lon="6.19337">
        <ele>142</ele>
        <time>2019-04-17T12:48:01Z</time>
      </trkpt>
      <trkpt lat="43.46449" lon="6.1933">
        <ele>142</ele>
        <time>2019-04-17T12:48:09Z</time>
      </trkpt>
      <trkpt lat="43.46456" lon="6.19324">
        <ele>140</ele>
        <time>2019-04-17T12:48:16Z</time>
      </trkpt>
      <trkpt lat="43.46463" lon="6.19321">
        <ele>139</ele>
        <time>2019-04-17T12:48:21Z</time>
      </trkpt>
      <trkpt lat="43.46478" lon="6.1932">
        <ele>137</ele>
        <time>2019-04-17T12:48:36Z</time>
      </trkpt>
      <trkpt lat="43.46486" lon="6.19315">
        <ele>138</ele>
        <time>2019-04-17T12:48:44Z</time>
      </trkpt>
      <trkpt lat="43.46496" lon="6.19297">
        <ele>135</ele>
        <time>2019-04-17T12:49:02Z</time>
      </trkpt>
      <trkpt lat="43.465" lon="6.19287">
        <ele>135</ele>
        <time>2019-04-17T12:49:08Z</time>
      </trkpt>
      <trkpt lat="43.46504" lon="6.19277">
        <ele>135</ele>
        <time>2019-04-17T12:49:16Z</time>
      </trkpt>
      <trkpt lat="43.46521" lon="6.19258">
        <ele>135</ele>
        <time>2019-04-17T12:49:36Z</time>
      </trkpt>
      <trkpt lat="43.46528" lon="6.1925">
        <ele>134</ele>
        <time>2019-04-17T12:49:43Z</time>
      </trkpt>
      <trkpt lat="43.46542" lon="6.19247">
        <ele>136</ele>
        <time>2019-04-17T12:49:59Z</time>
      </trkpt>
      <trkpt lat="43.46551" lon="6.19253">
        <ele>136</ele>
        <time>2019-04-17T12:50:07Z</time>
      </trkpt>
      <trkpt lat="43.46585" lon="6.19239">
        <ele>139</ele>
        <time>2019-04-17T12:50:39Z</time>
      </trkpt>
      <trkpt lat="43.46594" lon="6.19235">
        <ele>139</ele>
        <time>2019-04-17T12:50:47Z</time>
      </trkpt>
      <trkpt lat="43.46601" lon="6.19231">
        <ele>140</ele>
        <time>2019-04-17T12:50:54Z</time>
      </trkpt>
      <trkpt lat="43.46609" lon="6.19221">
        <ele>140</ele>
        <time>2019-04-17T12:51:02Z</time>
      </trkpt>
      <trkpt lat="43.46623" lon="6.19211">
        <ele>137</ele>
        <time>2019-04-17T12:51:15Z</time>
      </trkpt>
      <trkpt lat="43.46644" lon="6.19193">
        <ele>136</ele>
        <time>2019-04-17T12:51:35Z</time>
      </trkpt>
      <trkpt lat="43.46678" lon="6.19163">
        <ele>136</ele>
        <time>2019-04-17T12:52:08Z</time>
      </trkpt>
      <trkpt lat="43.46685" lon="6.19155">
        <ele>137</ele>
        <time>2019-04-17T12:52:16Z</time>
      </trkpt>
      <trkpt lat="43.46723" lon="6.19118">
        <ele>135</ele>
        <time>2019-04-17T12:52:51Z</time>
      </trkpt>
      <trkpt lat="43.46751" lon="6.19105">
        <ele>135</ele>
        <time>2019-04-17T12:53:18Z</time>
      </trkpt>
      <trkpt lat="43.46758" lon="6.19104">
        <ele>137</ele>
        <time>2019-04-17T12:53:25Z</time>
      </trkpt>
      <trkpt lat="43.46768" lon="6.1912">
        <ele>138</ele>
        <time>2019-04-17T12:53:46Z</time>
      </trkpt>
      <trkpt lat="43.4678" lon="6.19131">
        <ele>139</ele>
        <time>2019-04-17T12:53:59Z</time>
      </trkpt>
      <trkpt lat="43.46786" lon="6.19136">
        <ele>140</ele>
        <time>2019-04-17T12:54:08Z</time>
      </trkpt>
      <trkpt lat="43.46809" lon="6.19138">
        <ele>143</ele>
        <time>2019-04-17T12:54:40Z</time>
      </trkpt>
      <trkpt lat="43.46843" lon="6.19145">
        <ele>148</ele>
        <time>2019-04-17T12:55:10Z</time>
      </trkpt>
      <trkpt lat="43.46869" lon="6.1914">
        <ele>147</ele>
        <time>2019-04-17T12:55:40Z</time>
      </trkpt>
      <trkpt lat="43.46891" lon="6.19127">
        <ele>148</ele>
        <time>2019-04-17T12:56:02Z</time>
      </trkpt>
      <trkpt lat="43.46911" lon="6.19101">
        <ele>146</ele>
        <time>2019-04-17T12:56:26Z</time>
      </trkpt>
      <trkpt lat="43.46919" lon="6.19081">
        <ele>146</ele>
        <time>2019-04-17T12:56:40Z</time>
      </trkpt>
      <trkpt lat="43.4692" lon="6.19069">
        <ele>145</ele>
        <time>2019-04-17T12:56:49Z</time>
      </trkpt>
      <trkpt lat="43.46924" lon="6.19058">
        <ele>146</ele>
        <time>2019-04-17T12:56:56Z</time>
      </trkpt>
      <trkpt lat="43.46927" lon="6.19047">
        <ele>146</ele>
        <time>2019-04-17T12:57:02Z</time>
      </trkpt>
      <trkpt lat="43.4693" lon="6.19037">
        <ele>146</ele>
        <time>2019-04-17T12:57:08Z</time>
      </trkpt>
      <trkpt lat="43.46933" lon="6.19017">
        <ele>146</ele>
        <time>2019-04-17T12:57:21Z</time>
      </trkpt>
      <trkpt lat="43.46935" lon="6.19007">
        <ele>145</ele>
        <time>2019-04-17T12:57:27Z</time>
      </trkpt>
      <trkpt lat="43.46938" lon="6.18988">
        <ele>147</ele>
        <time>2019-04-17T12:57:41Z</time>
      </trkpt>
      <trkpt lat="43.46942" lon="6.18979">
        <ele>147</ele>
        <time>2019-04-17T12:57:47Z</time>
      </trkpt>
      <trkpt lat="43.46949" lon="6.18962">
        <ele>146</ele>
        <time>2019-04-17T12:57:59Z</time>
      </trkpt>
      <trkpt lat="43.46954" lon="6.18954">
        <ele>146</ele>
        <time>2019-04-17T12:58:04Z</time>
      </trkpt>
      <trkpt lat="43.46958" lon="6.18946">
        <ele>146</ele>
        <time>2019-04-17T12:58:09Z</time>
      </trkpt>
      <trkpt lat="43.46961" lon="6.18929">
        <ele>145</ele>
        <time>2019-04-17T12:58:21Z</time>
      </trkpt>
      <trkpt lat="43.46962" lon="6.1892">
        <ele>144</ele>
        <time>2019-04-17T12:58:27Z</time>
      </trkpt>
      <trkpt lat="43.46966" lon="6.1891">
        <ele>144</ele>
        <time>2019-04-17T12:58:34Z</time>
      </trkpt>
      <trkpt lat="43.4697" lon="6.18902">
        <ele>144</ele>
        <time>2019-04-17T12:58:40Z</time>
      </trkpt>
      <trkpt lat="43.46973" lon="6.18894">
        <ele>144</ele>
        <time>2019-04-17T12:58:46Z</time>
      </trkpt>
      <trkpt lat="43.46976" lon="6.18885">
        <ele>144</ele>
        <time>2019-04-17T12:58:52Z</time>
      </trkpt>
      <trkpt lat="43.46979" lon="6.18877">
        <ele>144</ele>
        <time>2019-04-17T12:58:58Z</time>
      </trkpt>
      <trkpt lat="43.46981" lon="6.18868">
        <ele>145</ele>
        <time>2019-04-17T12:59:04Z</time>
      </trkpt>
      <trkpt lat="43.46991" lon="6.18843">
        <ele>142</ele>
        <time>2019-04-17T12:59:22Z</time>
      </trkpt>
      <trkpt lat="43.46999" lon="6.18808">
        <ele>141</ele>
        <time>2019-04-17T12:59:48Z</time>
      </trkpt>
      <trkpt lat="43.47013" lon="6.18789">
        <ele>141</ele>
        <time>2019-04-17T13:00:05Z</time>
      </trkpt>
      <trkpt lat="43.47018" lon="6.18784">
        <ele>141</ele>
        <time>2019-04-17T13:00:12Z</time>
      </trkpt>
      <trkpt lat="43.47023" lon="6.1878">
        <ele>140</ele>
        <time>2019-04-17T13:00:18Z</time>
      </trkpt>
      <trkpt lat="43.47057" lon="6.18771">
        <ele>145</ele>
        <time>2019-04-17T13:00:51Z</time>
      </trkpt>
      <trkpt lat="43.47065" lon="6.18767">
        <ele>146</ele>
        <time>2019-04-17T13:00:59Z</time>
      </trkpt>
      <trkpt lat="43.47071" lon="6.18761">
        <ele>146</ele>
        <time>2019-04-17T13:01:04Z</time>
      </trkpt>
      <trkpt lat="43.47078" lon="6.18757">
        <ele>146</ele>
        <time>2019-04-17T13:01:10Z</time>
      </trkpt>
      <trkpt lat="43.47085" lon="6.18752">
        <ele>146</ele>
        <time>2019-04-17T13:01:17Z</time>
      </trkpt>
      <trkpt lat="43.47098" lon="6.18737">
        <ele>146</ele>
        <time>2019-04-17T13:01:30Z</time>
      </trkpt>
      <trkpt lat="43.47111" lon="6.18728">
        <ele>145</ele>
        <time>2019-04-17T13:01:43Z</time>
      </trkpt>
      <trkpt lat="43.47116" lon="6.18721">
        <ele>146</ele>
        <time>2019-04-17T13:01:50Z</time>
      </trkpt>
      <trkpt lat="43.47115" lon="6.18712">
        <ele>146</ele>
        <time>2019-04-17T13:01:56Z</time>
      </trkpt>
      <trkpt lat="43.47113" lon="6.18703">
        <ele>147</ele>
        <time>2019-04-17T13:02:04Z</time>
      </trkpt>
      <trkpt lat="43.4711" lon="6.18693">
        <ele>147</ele>
        <time>2019-04-17T13:02:11Z</time>
      </trkpt>
      <trkpt lat="43.47113" lon="6.18685">
        <ele>146</ele>
        <time>2019-04-17T13:02:23Z</time>
      </trkpt>
      <trkpt lat="43.4713" lon="6.18665">
        <ele>149</ele>
        <time>2019-04-17T13:02:47Z</time>
      </trkpt>
      <trkpt lat="43.47134" lon="6.1866">
        <ele>149</ele>
        <time>2019-04-17T13:02:54Z</time>
      </trkpt>
      <trkpt lat="43.47138" lon="6.18653">
        <ele>149</ele>
        <time>2019-04-17T13:03:00Z</time>
      </trkpt>
      <trkpt lat="43.47143" lon="6.18646">
        <ele>149</ele>
        <time>2019-04-17T13:03:06Z</time>
      </trkpt>
      <trkpt lat="43.47155" lon="6.18636">
        <ele>151</ele>
        <time>2019-04-17T13:03:17Z</time>
      </trkpt>
      <trkpt lat="43.47165" lon="6.18616">
        <ele>149</ele>
        <time>2019-04-17T13:03:33Z</time>
      </trkpt>
      <trkpt lat="43.47172" lon="6.18606">
        <ele>150</ele>
        <time>2019-04-17T13:03:41Z</time>
      </trkpt>
      <trkpt lat="43.4718" lon="6.18596">
        <ele>150</ele>
        <time>2019-04-17T13:03:49Z</time>
      </trkpt>
      <trkpt lat="43.47185" lon="6.18595">
        <ele>150</ele>
        <time>2019-04-17T13:03:54Z</time>
      </trkpt>
      <trkpt lat="43.47191" lon="6.18591">
        <ele>152</ele>
        <time>2019-04-17T13:04:01Z</time>
      </trkpt>
      <trkpt lat="43.47198" lon="6.18581">
        <ele>151</ele>
        <time>2019-04-17T13:04:09Z</time>
      </trkpt>
      <trkpt lat="43.47196" lon="6.18574">
        <ele>151</ele>
        <time>2019-04-17T13:04:17Z</time>
      </trkpt>
      <trkpt lat="43.47201" lon="6.18566">
        <ele>152</ele>
        <time>2019-04-17T13:04:47Z</time>
      </trkpt>
      <trkpt lat="43.47202" lon="6.18555">
        <ele>151</ele>
        <time>2019-04-17T13:04:59Z</time>
      </trkpt>
      <trkpt lat="43.47203" lon="6.18544">
        <ele>151</ele>
        <time>2019-04-17T13:05:06Z</time>
      </trkpt>
      <trkpt lat="43.47204" lon="6.18535">
        <ele>151</ele>
        <time>2019-04-17T13:05:16Z</time>
      </trkpt>
      <trkpt lat="43.47205" lon="6.18525">
        <ele>150</ele>
        <time>2019-04-17T13:05:24Z</time>
      </trkpt>
      <trkpt lat="43.47206" lon="6.18513">
        <ele>150</ele>
        <time>2019-04-17T13:05:33Z</time>
      </trkpt>
      <trkpt lat="43.47208" lon="6.185">
        <ele>149</ele>
        <time>2019-04-17T13:05:41Z</time>
      </trkpt>
      <trkpt lat="43.47215" lon="6.18477">
        <ele>149</ele>
        <time>2019-04-17T13:05:56Z</time>
      </trkpt>
      <trkpt lat="43.47216" lon="6.18455">
        <ele>149</ele>
        <time>2019-04-17T13:06:14Z</time>
      </trkpt>
      <trkpt lat="43.47219" lon="6.18443">
        <ele>150</ele>
        <time>2019-04-17T13:06:26Z</time>
      </trkpt>
      <trkpt lat="43.4723" lon="6.18423">
        <ele>152</ele>
        <time>2019-04-17T13:06:45Z</time>
      </trkpt>
      <trkpt lat="43.47241" lon="6.18399">
        <ele>154</ele>
        <time>2019-04-17T13:07:08Z</time>
      </trkpt>
      <trkpt lat="43.4725" lon="6.1839">
        <ele>155</ele>
        <time>2019-04-17T13:07:18Z</time>
      </trkpt>
      <trkpt lat="43.47265" lon="6.18375">
        <ele>156</ele>
        <time>2019-04-17T13:07:37Z</time>
      </trkpt>
      <trkpt lat="43.47273" lon="6.18365">
        <ele>157</ele>
        <time>2019-04-17T13:07:47Z</time>
      </trkpt>
      <trkpt lat="43.4728" lon="6.18358">
        <ele>158</ele>
        <time>2019-04-17T13:07:55Z</time>
      </trkpt>
      <trkpt lat="43.47287" lon="6.18351">
        <ele>157</ele>
        <time>2019-04-17T13:08:05Z</time>
      </trkpt>
      <trkpt lat="43.47294" lon="6.18344">
        <ele>154</ele>
        <time>2019-04-17T13:08:17Z</time>
      </trkpt>
      <trkpt lat="43.47299" lon="6.18337">
        <ele>149</ele>
        <time>2019-04-17T13:08:25Z</time>
      </trkpt>
      <trkpt lat="43.47304" lon="6.18328">
        <ele>145</ele>
        <time>2019-04-17T13:08:33Z</time>
      </trkpt>
      <trkpt lat="43.47316" lon="6.18297">
        <ele>142</ele>
        <time>2019-04-17T13:09:02Z</time>
      </trkpt>
      <trkpt lat="43.47322" lon="6.1829">
        <ele>142</ele>
        <time>2019-04-17T13:09:07Z</time>
      </trkpt>
      <trkpt lat="43.47326" lon="6.18282">
        <ele>144</ele>
        <time>2019-04-17T13:09:16Z</time>
      </trkpt>
      <trkpt lat="43.47333" lon="6.18277">
        <ele>145</ele>
        <time>2019-04-17T13:09:23Z</time>
      </trkpt>
      <trkpt lat="43.47353" lon="6.18266">
        <ele>152</ele>
        <time>2019-04-17T13:09:51Z</time>
      </trkpt>
      <trkpt lat="43.4736" lon="6.18266">
        <ele>154</ele>
        <time>2019-04-17T13:10:00Z</time>
      </trkpt>
      <trkpt lat="43.47364" lon="6.18288">
        <ele>154</ele>
        <time>2019-04-17T13:10:19Z</time>
      </trkpt>
      <trkpt lat="43.47367" lon="6.18296">
        <ele>153</ele>
        <time>2019-04-17T13:10:34Z</time>
      </trkpt>
      <trkpt lat="43.47375" lon="6.18315">
        <ele>152</ele>
        <time>2019-04-17T13:10:50Z</time>
      </trkpt>
      <trkpt lat="43.47381" lon="6.18321">
        <ele>153</ele>
        <time>2019-04-17T13:11:10Z</time>
      </trkpt>
      <trkpt lat="43.47386" lon="6.18323">
        <ele>155</ele>
        <time>2019-04-17T13:11:34Z</time>
      </trkpt>
      <trkpt lat="43.47393" lon="6.18326">
        <ele>154</ele>
        <time>2019-04-17T13:11:40Z</time>
      </trkpt>
      <trkpt lat="43.47406" lon="6.18339">
        <ele>152</ele>
        <time>2019-04-17T13:11:56Z</time>
      </trkpt>
      <trkpt lat="43.47419" lon="6.18353">
        <ele>151</ele>
        <time>2019-04-17T13:12:14Z</time>
      </trkpt>
      <trkpt lat="43.47429" lon="6.18355">
        <ele>153</ele>
        <time>2019-04-17T13:12:25Z</time>
      </trkpt>
      <trkpt lat="43.47442" lon="6.1837">
        <ele>153</ele>
        <time>2019-04-17T13:12:39Z</time>
      </trkpt>
      <trkpt lat="43.47451" lon="6.18374">
        <ele>153</ele>
        <time>2019-04-17T13:12:47Z</time>
      </trkpt>
      <trkpt lat="43.47459" lon="6.18381">
        <ele>152</ele>
        <time>2019-04-17T13:12:55Z</time>
      </trkpt>
      <trkpt lat="43.47477" lon="6.18383">
        <ele>152</ele>
        <time>2019-04-17T13:13:07Z</time>
      </trkpt>
      <trkpt lat="43.47484" lon="6.18378">
        <ele>152</ele>
        <time>2019-04-17T13:13:15Z</time>
      </trkpt>
      <trkpt lat="43.47498" lon="6.18361">
        <ele>151</ele>
        <time>2019-04-17T13:13:30Z</time>
      </trkpt>
      <trkpt lat="43.47503" lon="6.18353">
        <ele>151</ele>
        <time>2019-04-17T13:13:37Z</time>
      </trkpt>
      <trkpt lat="43.47501" lon="6.18343">
        <ele>151</ele>
        <time>2019-04-17T13:13:45Z</time>
      </trkpt>
      <trkpt lat="43.47502" lon="6.18333">
        <ele>149</ele>
        <time>2019-04-17T13:13:52Z</time>
      </trkpt>
      <trkpt lat="43.47502" lon="6.18325">
        <ele>150</ele>
        <time>2019-04-17T13:13:57Z</time>
      </trkpt>
      <trkpt lat="43.47503" lon="6.18316">
        <ele>150</ele>
        <time>2019-04-17T13:14:02Z</time>
      </trkpt>
      <trkpt lat="43.47505" lon="6.18307">
        <ele>150</ele>
        <time>2019-04-17T13:14:08Z</time>
      </trkpt>
      <trkpt lat="43.47509" lon="6.18301">
        <ele>150</ele>
        <time>2019-04-17T13:14:13Z</time>
      </trkpt>
      <trkpt lat="43.47512" lon="6.18291">
        <ele>152</ele>
        <time>2019-04-17T13:14:19Z</time>
      </trkpt>
      <trkpt lat="43.47513" lon="6.1828">
        <ele>153</ele>
        <time>2019-04-17T13:14:27Z</time>
      </trkpt>
      <trkpt lat="43.47516" lon="6.18269">
        <ele>154</ele>
        <time>2019-04-17T13:14:34Z</time>
      </trkpt>
      <trkpt lat="43.47514" lon="6.18259">
        <ele>154</ele>
        <time>2019-04-17T13:14:40Z</time>
      </trkpt>
      <trkpt lat="43.47513" lon="6.1825">
        <ele>153</ele>
        <time>2019-04-17T13:14:46Z</time>
      </trkpt>
      <trkpt lat="43.4752" lon="6.18203">
        <ele>159</ele>
        <time>2019-04-17T13:15:17Z</time>
      </trkpt>
      <trkpt lat="43.47533" lon="6.18171">
        <ele>159</ele>
        <time>2019-04-17T13:15:44Z</time>
      </trkpt>
      <trkpt lat="43.47553" lon="6.18158">
        <ele>162</ele>
        <time>2019-04-17T13:16:18Z</time>
      </trkpt>
      <trkpt lat="43.47556" lon="6.18179">
        <ele>162</ele>
        <time>2019-04-17T13:16:34Z</time>
      </trkpt>
      <trkpt lat="43.4755" lon="6.18202">
        <ele>157</ele>
        <time>2019-04-17T13:16:52Z</time>
      </trkpt>
      <trkpt lat="43.47548" lon="6.18223">
        <ele>156</ele>
        <time>2019-04-17T13:17:03Z</time>
      </trkpt>
      <trkpt lat="43.47568" lon="6.18235">
        <ele>153</ele>
        <time>2019-04-17T13:17:25Z</time>
      </trkpt>
      <trkpt lat="43.47566" lon="6.18246">
        <ele>150</ele>
        <time>2019-04-17T13:17:41Z</time>
      </trkpt>
      <trkpt lat="43.47564" lon="6.18257">
        <ele>147</ele>
        <time>2019-04-17T13:17:50Z</time>
      </trkpt>
      <trkpt lat="43.47564" lon="6.1827">
        <ele>145</ele>
        <time>2019-04-17T13:18:00Z</time>
      </trkpt>
      <trkpt lat="43.47557" lon="6.18306">
        <ele>141</ele>
        <time>2019-04-17T13:18:23Z</time>
      </trkpt>
      <trkpt lat="43.47562" lon="6.18317">
        <ele>142</ele>
        <time>2019-04-17T13:20:41Z</time>
      </trkpt>
    </trkseg>
  </trk>
</gpx>